OE315 / OE-LOJ 7700 Squawk Report (11th of December, 2019)

Aircraft A320 Reg No. OE-LOJ Age 15 years old
Model A320 Jet engines 2 First flight 16-09-04
Registered 05-02-19 Rollout 09-04 Delivered 15-10-04
Construction No. 2288 Line No. N/A Series 232
ADSHEX 4402BE Airline name Laudamotion Owner Castlelake
Airfield based Vienna-Schwechat~Vienna~OE First tracked 2019-02-12 07:54:00

Flight history for OE-LOJ

Route Flight No Date Playback
Dusseldorf (DUS) - Son Sant Joan (PMI) OE140 2020-01-18 21:32:00
Son Sant Joan (PMI) - Dusseldorf (DUS) OE141 2020-01-18 19:37:00
Munster Osnabruck (FMO) - Son Sant Joan (PMI) OE112 2020-01-18 15:26:00
Son Sant Joan (PMI) - Munster Osnabruck (FMO) OE113 2020-01-18 12:51:00
Schwechat (VIE) - Son Sant Joan (PMI) OE7794 2020-01-17 20:00:00
Boryspil Intl (KBP) - Schwechat (VIE) OE976 2020-01-17 16:19:00
Schwechat (VIE) - Boryspil Intl (KBP) OE975 2020-01-17 13:45:00
Fiumicino (FCO) - Schwechat (VIE) OE309 2020-01-17 11:14:00
Schwechat (VIE) - Fiumicino (FCO) OE308 2020-01-17 07:24:00
Birmingham (BHX) - Schwechat (VIE) OE137 2020-01-16 21:29:00
Schwechat (VIE) - Birmingham (BHX) OE136 2020-01-16 18:21:00
Eindhoven (EIN) - Schwechat (VIE) OE149 2020-01-16 16:17:00
Schwechat (VIE) - Eindhoven (EIN) OE148 2020-01-16 13:37:00
Brussels South Charleroi (CRL) - Schwechat (VIE) OE139 2020-01-16 10:29:00
Schwechat (VIE) - Brussels South Charleroi (CRL) OE138 2020-01-16 09:03:00
Fiumicino (FCO) - Schwechat (VIE) OE313 2020-01-15 21:13:00
Schwechat (VIE) - Fiumicino (FCO) OE312 2020-01-15 18:34:00
Boryspil Intl (KBP) - Schwechat (VIE) OE976 2020-01-15 15:50:00
Schwechat (VIE) - Boryspil Intl (KBP) OE975 2020-01-15 13:17:00
Munster Osnabruck (FMO) - Schwechat (VIE) OE119 2020-01-15 10:16:00
Time Lat Lon Altitude Heading Speed Vertical Rate
2019-12-11 09:53:05 GMT 48.691010 9.209055 0 343 2 0
2019-12-11 09:52:55 GMT 48.690960 9.209078 0 345 10 0
2019-12-11 09:52:43 GMT 48.690430 9.209308 0 331 13 0
2019-12-11 09:52:34 GMT 48.690239 9.210099 0 255 15 0
2019-12-11 09:52:24 GMT 48.690388 9.211279 0 272 23 0
2019-12-11 09:52:14 GMT 48.690159 9.213022 0 284 32 0
2019-12-11 09:52:03 GMT 48.689781 9.215364 0 286 45 0
2019-12-11 09:51:53 GMT 48.689426 9.218505 0 264 52 0
2019-12-11 09:51:42 GMT 48.689987 9.222625 0 253 66 0
2019-12-11 09:51:32 GMT 48.690971 9.227723 0 253 90 0
2019-12-11 09:51:22 GMT 48.692207 9.234280 0 253 130 0
2019-12-11 09:51:12 GMT 48.693920 9.243333 1,225 254 134 -768
2019-12-11 09:51:01 GMT 48.695782 9.253163 1,375 255 132 -640
2019-12-11 09:50:54 GMT 48.697086 9.259957 1,450 255 127 -640
2019-12-11 09:50:42 GMT 48.699085 9.270582 1,600 255 126 -640
2019-12-11 09:50:31 GMT 48.700718 9.279111 1,725 255 127 -768
2019-12-11 09:50:23 GMT 48.701981 9.286123 1,825 255 128 -704
2019-12-11 09:50:20 GMT 48.702393 9.288236 1,825 255 128 -704
2019-12-11 09:50:13 GMT 48.703835 9.295662 1,950 254 130 -640
2019-12-11 09:50:01 GMT 48.705559 9.304914 2,075 255 129 -768
2019-12-11 09:49:51 GMT 48.707188 9.313660 2,200 255 128 -640
2019-12-11 09:49:42 GMT 48.708958 9.322839 2,325 255 128 -640
2019-12-11 09:49:37 GMT 48.709606 9.326381 2,350 255 128 -704
2019-12-11 09:49:31 GMT 48.710587 9.331585 2,650 254 147 -512
2019-12-11 09:49:21 GMT 48.712357 9.340836 2,575 254 141 -1024
2019-12-11 09:49:16 GMT 48.714729 9.353196 2,900 255 152 -896
2019-12-11 09:49:09 GMT 48.714729 9.353196 2,750 255 155 -768
2019-12-11 09:49:01 GMT 48.716312 9.361797 2,850 255 163 -832
2019-12-11 09:48:56 GMT 48.717224 9.366619 2,900 255 166 -1024
2019-12-11 09:48:49 GMT 48.718689 9.374648 3,025 255 168 -896
2019-12-11 09:48:41 GMT 48.720364 9.383553 3,175 255 170 -960
2019-12-11 09:48:38 GMT 48.721024 9.387113 3,175 255 170 -960
2019-12-11 09:48:29 GMT 48.723312 9.398592 3,350 253 172 -896
2019-12-11 09:48:23 GMT 48.724503 9.403945 3,450 252 170 -768
2019-12-11 09:48:19 GMT 48.726288 9.411480 3,500 249 174 -128
2019-12-11 09:48:12 GMT 48.727390 9.415789 3,525 249 174 -128
2019-12-11 09:48:08 GMT 48.728600 9.420415 3,525 248 177 -192
2019-12-11 09:48:03 GMT 48.730465 9.426848 3,550 246 183 -128
2019-12-11 09:47:59 GMT 48.734436 9.438383 3,550 193 233 -576
2019-12-11 09:47:53 GMT 48.734436 9.438383 3,550 237 195 64
2019-12-11 09:47:48 GMT 48.737309 9.444339 3,525 232 198 0
2019-12-11 09:47:42 GMT 48.740891 9.450285 3,525 223 204 -128
2019-12-11 09:47:38 GMT 48.743778 9.453952 3,550 218 208 -128
2019-12-11 09:47:32 GMT 48.748581 9.458383 3,550 200 220 -512
2019-12-11 09:47:28 GMT 48.757557 9.462192 3,675 193 225 -1024
2019-12-11 09:47:16 GMT 48.765381 9.464792 3,800 193 232 -576
2019-12-11 09:47:08 GMT 48.774548 9.467830 3,875 193 235 -576
2019-12-11 09:47:05 GMT 48.780899 9.469863 3,900 193 242 -640
2019-12-11 09:47:01 GMT 48.780899 9.469863 4,175 193 243 -704
2019-12-11 09:46:57 GMT 48.786484 9.471764 3,975 193 242 -640
2019-12-11 09:46:50 GMT 48.795033 9.474624 4,075 193 246 -768
2019-12-11 09:46:44 GMT 48.800217 9.476271 4,125 193 248 -640
2019-12-11 09:46:40 GMT 48.804657 9.477750 4,200 193 254 -960
2019-12-11 09:46:36 GMT 48.809464 9.479322 4,225 193 254 -960
2019-12-11 09:46:31 GMT 48.814117 9.480768 4,650 193 254 -1344
2019-12-11 09:46:28 GMT 48.818939 9.482398 4,375 193 254 -1792
2019-12-11 09:46:25 GMT 48.821365 9.483173 4,425 193 254 -1600
2019-12-11 09:46:21 GMT 48.826363 9.484815 4,575 193 254 -1664
2019-12-11 09:46:18 GMT 48.829853 9.486044 4,650 193 254 -1600
2019-12-11 09:46:15 GMT 48.841141 9.489793 4,750 193 255 -1024
2019-12-11 09:46:08 GMT 48.841141 9.489793 4,825 193 255 -1024
2019-12-11 09:46:04 GMT 48.845589 9.491248 4,925 193 257 -960
2019-12-11 09:46:00 GMT 48.849884 9.492680 4,975 193 257 -576
2019-12-11 09:45:57 GMT 48.853729 9.493948 5,000 193 257 0
2019-12-11 09:45:54 GMT 48.856842 9.494934 5,000 193 257 0
2019-12-11 09:45:48 GMT 48.864395 9.497392 5,000 191 258 128
2019-12-11 09:45:44 GMT 48.870167 9.499199 5,000 191 258 128
2019-12-11 09:45:41 GMT 48.873688 9.500146 5,000 186 260 64
2019-12-11 09:45:38 GMT 48.877335 9.500861 5,000 183 261 0
2019-12-11 09:45:35 GMT 48.880508 9.501131 5,000 177 262 64
2019-12-11 09:45:28 GMT 48.888462 9.500210 5,000 167 264 0
2019-12-11 09:45:23 GMT 48.894424 9.498314 5,000 166 264 0
2019-12-11 09:45:20 GMT 48.898132 9.496906 5,000 166 265 -64
2019-12-11 09:45:17 GMT 48.901749 9.495638 5,000 166 265 -64
2019-12-11 09:45:14 GMT 48.906235 9.493948 5,000 166 264 -64
2019-12-11 09:45:07 GMT 48.913605 9.491272 5,000 166 264 -128
2019-12-11 09:45:03 GMT 48.918228 9.489511 5,025 166 262 -192
2019-12-11 09:44:58 GMT 48.930035 9.485032 5,625 166 256 -896
2019-12-11 09:44:53 GMT 48.930035 9.485032 5,050 166 253 -512
2019-12-11 09:44:50 GMT 48.933945 9.483514 5,100 166 255 -768
2019-12-11 09:44:46 GMT 48.938141 9.481976 5,125 166 256 -896
2019-12-11 09:44:43 GMT 48.941437 9.480708 5,175 166 258 -1152
2019-12-11 09:44:37 GMT 48.948486 9.478102 5,300 166 259 -1408
2019-12-11 09:44:32 GMT 48.953728 9.476142 5,400 166 259 -1408
2019-12-11 09:44:27 GMT 48.965744 9.471623 5,775 166 262 -1408
2019-12-11 09:44:22 GMT 48.965744 9.471623 5,650 166 261 -1408
2019-12-11 09:44:16 GMT 48.972473 9.469088 5,775 166 262 -1408
2019-12-11 09:44:12 GMT 48.977600 9.467116 5,875 166 263 -1408
2019-12-11 09:44:07 GMT 48.984314 9.464577 6,025 166 264 -1472
2019-12-11 09:44:01 GMT 48.989960 9.462468 6,125 166 264 -1472
2019-12-11 09:43:58 GMT 48.993996 9.460963 6,225 166 265 -1472
2019-12-11 09:43:55 GMT 48.997536 9.459590 6,875 166 266 -1600
2019-12-11 09:43:52 GMT 49.002411 9.457820 6,400 166 266 -1536
2019-12-11 09:43:48 GMT 49.005936 9.456482 6,475 166 266 -1600
2019-12-11 09:43:44 GMT 49.010849 9.454675 6,575 166 266 -1600
2019-12-11 09:43:41 GMT 49.018707 9.451763 6,775 166 266 -1728
2019-12-11 09:43:38 GMT 49.018707 9.451763 6,775 166 266 -1728
2019-12-11 09:43:34 GMT 49.023331 9.450073 6,875 166 266 -1600
2019-12-11 09:43:31 GMT 49.028000 9.448313 6,975 166 266 -1536
2019-12-11 09:43:28 GMT 49.030540 9.447375 7,025 166 266 -1472
2019-12-11 09:43:21 GMT 49.039307 9.444087 7,200 166 267 -1280
2019-12-11 09:43:17 GMT 49.042694 9.442819 7,275 165 268 -1344
2019-12-11 09:43:14 GMT 49.047020 9.441159 7,350 166 268 -1408
2019-12-11 09:43:10 GMT 49.051952 9.439280 7,450 166 269 -1472
2019-12-11 09:43:05 GMT 49.057259 9.437256 7,550 166 269 -1664
2019-12-11 09:43:01 GMT 49.063313 9.435015 7,750 166 269 -1792
2019-12-11 09:42:58 GMT 49.067596 9.433353 7,800 166 269 -1728
2019-12-11 09:42:55 GMT 49.070156 9.432413 7,850 166 269 -1664
2019-12-11 09:42:52 GMT 49.073273 9.431184 7,950 166 271 -1408
2019-12-11 09:42:49 GMT 49.076981 9.429791 8,025 166 269 -1472
2019-12-11 09:42:45 GMT 49.082958 9.427498 8,100 166 269 -1472
2019-12-11 09:42:40 GMT 49.089241 9.425185 8,250 166 271 -1408
2019-12-11 09:42:35 GMT 49.098038 9.421833 8,375 166 271 -1344
2019-12-11 09:42:29 GMT 49.102509 9.420198 8,525 166 273 -1728
2019-12-11 09:42:26 GMT 49.104996 9.419297 8,575 166 273 -1792
2019-12-11 09:42:23 GMT 49.109215 9.417741 9,375 166 271 -1664
2019-12-11 09:42:18 GMT 49.115662 9.415424 8,800 166 272 -1920
2019-12-11 09:42:15 GMT 49.119324 9.414086 8,900 166 271 -1792
2019-12-11 09:42:12 GMT 49.122574 9.412889 8,975 166 271 -1728
2019-12-11 09:42:09 GMT 49.126995 9.411308 9,175 166 271 -1472
2019-12-11 09:42:06 GMT 49.129715 9.410353 9,250 166 272 -1152
2019-12-11 09:42:02 GMT 49.139877 9.406621 9,725 166 334 0
2019-12-11 09:41:58 GMT 49.139877 9.406621 9,350 166 274 -832
2019-12-11 09:41:54 GMT 49.144409 9.404931 9,525 166 278 -1152
2019-12-11 09:41:51 GMT 49.148735 9.403357 9,475 166 282 -1152
2019-12-11 09:41:47 GMT 49.154461 9.401189 9,550 166 285 -1216
2019-12-11 09:41:42 GMT 49.159653 9.399226 9,625 166 291 -1024
2019-12-11 09:41:36 GMT 49.168076 9.396057 9,725 166 295 -512
2019-12-11 09:41:33 GMT 49.172150 9.394539 9,750 166 356 -1024
2019-12-11 09:41:29 GMT 49.183548 9.390212 9,750 166 310 0
2019-12-11 09:41:25 GMT 49.187794 9.388540 9,750 165 321 64
2019-12-11 09:41:21 GMT 49.195450 9.385634 9,750 166 358 -1152
2019-12-11 09:41:18 GMT 49.195450 9.385634 9,725 166 339 -64
2019-12-11 09:41:15 GMT 49.197235 9.385000 9,725 166 336 64
2019-12-11 09:41:10 GMT 49.206135 9.381601 9,750 166 348 -448
2019-12-11 09:41:06 GMT 49.211765 9.379505 9,775 166 356 -1024
2019-12-11 09:41:03 GMT 49.217468 9.377324 9,825 166 359 -896
2019-12-11 09:40:59 GMT 49.222275 9.375493 9,875 166 361 -768
2019-12-11 09:40:56 GMT 49.228363 9.373239 9,925 166 364 -896
2019-12-11 09:40:52 GMT 49.236145 9.370282 10,000 166 366 -640
2019-12-11 09:40:44 GMT 49.252075 9.364225 10,775 166 395 -3072
2019-12-11 09:40:41 GMT 49.252075 9.364225 10,100 166 359 -320
2019-12-11 09:40:38 GMT 49.256607 9.362464 10,125 166 355 -640
2019-12-11 09:40:33 GMT 49.264744 9.359412 13,675 166 396 -3136
2019-12-11 09:40:30 GMT 49.269791 9.357464 10,500 165 362 -2368
2019-12-11 09:40:23 GMT 49.281693 9.352886 10,500 166 373 -832
2019-12-11 09:40:20 GMT 49.286064 9.351172 10,500 166 378 -896
2019-12-11 09:40:17 GMT 49.298588 9.346474 12,725 166 414 -2944
2019-12-11 09:40:13 GMT 49.298588 9.346474 10,650 166 384 -1984
2019-12-11 09:40:10 GMT 49.303574 9.344576 10,750 166 387 -2368
2019-12-11 09:40:06 GMT 49.310532 9.341900 10,950 165 388 -2624
2019-12-11 09:40:03 GMT 49.316986 9.339435 11,100 166 390 -2624
2019-12-11 09:39:58 GMT 49.325310 9.336283 11,850 166 393 -3072
2019-12-11 09:39:55 GMT 49.330811 9.334224 11,475 166 392 -3072
2019-12-11 09:39:52 GMT 49.334335 9.332886 11,575 166 394 -3008
2019-12-11 09:39:49 GMT 49.348343 9.327533 11,850 166 394 -3072
2019-12-11 09:39:45 GMT 49.348343 9.327533 12,050 166 395 -3072
2019-12-11 09:39:42 GMT 49.352821 9.325875 12,050 166 395 -3072
2019-12-11 09:39:38 GMT 49.359852 9.323200 13,175 166 406 -2880
2019-12-11 09:39:34 GMT 49.367020 9.320454 12,500 166 395 -3328
2019-12-11 09:39:31 GMT 49.372192 9.318449 12,600 166 396 -3200
2019-12-11 09:39:28 GMT 49.376724 9.316758 12,850 166 396 -3008
2019-12-11 09:39:24 GMT 49.384735 9.313660 13,100 165 398 -2688
2019-12-11 09:39:21 GMT 49.390202 9.311564 13,100 165 398 -2688
2019-12-11 09:39:17 GMT 49.397186 9.308889 13,300 165 400 -2624
2019-12-11 09:39:14 GMT 49.404167 9.306215 13,575 166 403 -2816
2019-12-11 09:39:11 GMT 49.408081 9.304786 13,625 166 403 -2816
2019-12-11 09:39:08 GMT 49.413712 9.302601 13,725 166 404 -2816
2019-12-11 09:39:04 GMT 49.422882 9.299132 14,000 166 406 -2880
2019-12-11 09:39:01 GMT 49.427490 9.297321 14,125 166 406 -2880
2019-12-11 09:38:58 GMT 49.431976 9.295662 14,425 166 407 -3072
2019-12-11 09:38:52 GMT 49.444061 9.291037 14,575 165 409 -3264
2019-12-11 09:38:48 GMT 49.451836 9.288050 14,800 165 409 -3072
2019-12-11 09:38:40 GMT 49.465244 9.282928 17,750 166 430 -3072
2019-12-11 09:38:37 GMT 49.469761 9.281220 15,300 165 413 -3008
2019-12-11 09:38:30 GMT 49.484802 9.275424 15,725 166 414 -2944
2019-12-11 09:38:27 GMT 49.489220 9.273723 15,800 165 415 -3008
2019-12-11 09:38:22 GMT 49.497208 9.270654 17,000 166 422 -3136
2019-12-11 09:38:19 GMT 49.505356 9.267546 16,525 165 419 -2944
2019-12-11 09:38:13 GMT 49.516499 9.263256 16,525 165 420 -2944
2019-12-11 09:38:10 GMT 49.520462 9.261691 16,775 165 421 -3008
2019-12-11 09:38:07 GMT 49.536896 9.255331 17,550 165 424 -3072
2019-12-11 09:38:02 GMT 49.536896 9.255331 17,125 165 424 -3072
2019-12-11 09:37:59 GMT 49.543545 9.252789 17,400 165 424 -2944
2019-12-11 09:37:56 GMT 49.547516 9.251283 17,325 165 424 -3008
2019-12-11 09:37:53 GMT 49.552551 9.249332 17,425 165 425 -2944
2019-12-11 09:37:50 GMT 49.557541 9.247453 17,750 166 430 -3072
2019-12-11 09:37:47 GMT 49.565704 9.244253 17,825 165 427 -3008
2019-12-11 09:37:41 GMT 49.575665 9.240467 18,650 165 429 -3072
2019-12-11 09:37:38 GMT 49.583721 9.237349 18,275 165 431 -3136
2019-12-11 09:37:35 GMT 49.588577 9.235454 18,650 165 432 -3136
2019-12-11 09:37:31 GMT 49.597080 9.232227 18,650 165 431 -3200
2019-12-11 09:37:27 GMT 49.603867 9.229600 18,825 165 432 -3072
2019-12-11 09:37:24 GMT 49.608765 9.227648 19,075 165 438 -2944
2019-12-11 09:37:21 GMT 49.616726 9.224581 19,150 165 437 -3008
2019-12-11 09:37:18 GMT 49.621582 9.222733 19,275 165 437 -2944
2019-12-11 09:37:15 GMT 49.627338 9.220499 19,525 165 439 -2944
2019-12-11 09:37:12 GMT 49.634171 9.217891 19,600 165 439 -2944
2019-12-11 09:37:06 GMT 49.643875 9.214060 19,950 165 442 -3072
2019-12-11 09:37:03 GMT 49.657227 9.208844 19,950 165 442 -3136
2019-12-11 09:37:00 GMT 49.657227 9.208844 20,175 165 443 -3200
2019-12-11 09:36:56 GMT 49.665573 9.205603 20,400 165 445 -3264
2019-12-11 09:36:53 GMT 49.678345 9.200616 20,575 165 445 -3264
2019-12-11 09:36:50 GMT 49.678345 9.200616 20,750 165 446 -3328
2019-12-11 09:36:47 GMT 49.681339 9.199417 21,050 165 447 -3328
2019-12-11 09:36:44 GMT 49.696190 9.193552 21,125 165 447 -3520
2019-12-11 09:36:40 GMT 49.696190 9.193552 21,450 165 448 -3648
2019-12-11 09:36:37 GMT 49.702290 9.191177 21,400 165 448 -3648
2019-12-11 09:36:34 GMT 49.708431 9.188727 21,675 165 449 -3648
2019-12-11 09:36:31 GMT 49.716614 9.185582 21,850 165 449 -3776
2019-12-11 09:36:28 GMT 49.729111 9.180812 23,675 165 429 -5568
2019-12-11 09:36:25 GMT 49.729111 9.180812 22,450 165 446 -5184
2019-12-11 09:36:22 GMT 49.732826 9.179374 22,450 165 446 -5184
2019-12-11 09:36:17 GMT 49.744698 9.174772 23,050 166 439 -5952
2019-12-11 09:36:14 GMT 49.748932 9.173139 23,400 166 438 -5952
2019-12-11 09:36:11 GMT 49.754845 9.170837 23,500 165 438 -5952
2019-12-11 09:36:08 GMT 49.759361 9.169130 23,850 165 432 -5824
2019-12-11 09:36:05 GMT 49.766098 9.166501 24,175 166 430 -5696
2019-12-11 09:36:02 GMT 49.774071 9.163414 24,450 166 427 -5376
2019-12-11 09:35:58 GMT 49.779751 9.161261 24,950 165 423 -5056
2019-12-11 09:35:54 GMT 49.792786 9.156165 25,275 165 421 -4672
2019-12-11 09:35:48 GMT 49.799397 9.153616 25,575 165 416 -5376
2019-12-11 09:35:45 GMT 49.804333 9.151611 29,175 165 414 -5312
2019-12-11 09:35:42 GMT 49.809174 9.149681 29,175 138 442 -5248
2019-12-11 09:35:39 GMT 49.815269 9.147306 26,225 165 415 -4096
2019-12-11 09:35:36 GMT 49.822720 9.144337 26,700 166 422 -3008
2019-12-11 09:35:33 GMT 49.828857 9.141926 26,775 165 422 -2176
2019-12-11 09:35:28 GMT 49.842178 9.136691 26,975 165 422 -2624
2019-12-11 09:35:25 GMT 49.842178 9.136691 27,000 165 422 -2624
2019-12-11 09:35:22 GMT 49.846710 9.134915 27,050 165 423 -2688
2019-12-11 09:35:19 GMT 49.852707 9.132602 27,200 166 423 -2944
2019-12-11 09:35:16 GMT 49.858192 9.130455 27,525 166 423 -2944
2019-12-11 09:35:13 GMT 49.863918 9.128228 27,625 166 422 -3008
2019-12-11 09:35:10 GMT 49.871704 9.125302 27,675 166 422 -3008
2019-12-11 09:35:06 GMT 49.877289 9.123206 27,850 166 422 -3008
2019-12-11 09:35:03 GMT 49.891476 9.117762 29,175 138 442 -5248
2019-12-11 09:34:59 GMT 49.891476 9.117762 28,175 165 422 -3200
2019-12-11 09:34:56 GMT 49.898087 9.115089 28,400 164 422 -3584
2019-12-11 09:34:52 GMT 49.903954 9.112491 28,475 164 422 -3520
2019-12-11 09:34:49 GMT 49.912125 9.108822 28,975 159 431 -1536
2019-12-11 09:34:46 GMT 49.915329 9.107232 29,000 162 424 -1792
2019-12-11 09:34:43 GMT 49.922806 9.103509 28,975 161 425 -1536
2019-12-11 09:34:40 GMT 49.925694 9.101950 29,075 159 431 -1536
2019-12-11 09:34:37 GMT 49.932304 9.098164 30,600 157 432 -1984
2019-12-11 09:34:34 GMT 49.938583 9.094150 32,225 108 461 -3264
2019-12-11 09:34:31 GMT 49.944717 9.089813 30,150 151 439 -4096
2019-12-11 09:34:28 GMT 49.948689 9.086733 30,150 151 439 -4096
2019-12-11 09:34:25 GMT 49.954975 9.081462 29,950 147 441 -5504
2019-12-11 09:34:21 GMT 49.968338 9.068419 34,125 143 441 -5568
2019-12-11 09:34:17 GMT 49.974667 9.061271 34,125 106 462 -2944
2019-12-11 09:34:14 GMT 49.974667 9.061271 30,850 142 442 -5376
2019-12-11 09:34:11 GMT 49.978016 9.057263 31,000 138 442 -5248
2019-12-11 09:34:08 GMT 49.984360 9.049120 31,800 136 443 -5120
2019-12-11 09:34:05 GMT 49.986740 9.045796 34,125 106 462 -2944
2019-12-11 09:34:02 GMT 49.994030 9.035067 32,100 134 444 -4928
2019-12-11 09:33:59 GMT 49.997452 9.029461 32,025 132 445 -4800
2019-12-11 09:33:56 GMT 50.001759 9.022077 32,825 123 454 -3520
2019-12-11 09:33:52 GMT 50.006973 9.012204 32,700 126 450 -4032
2019-12-11 09:33:49 GMT 50.009300 9.007453 33,600 113 460 -3264
2019-12-11 09:33:46 GMT 50.014515 8.995947 35,300 103 464 -1856
2019-12-11 09:33:43 GMT 50.016266 8.991731 33,150 120 456 -3200
2019-12-11 09:33:40 GMT 50.019608 8.983347 33,275 121 456 -3200
2019-12-11 09:33:37 GMT 50.025547 8.967071 34,275 108 461 -3264
2019-12-11 09:33:31 GMT 50.029736 8.954303 37,025 105 473 64
2019-12-11 09:33:28 GMT 50.031506 8.948142 34,100 110 460 -3328
2019-12-11 09:33:25 GMT 50.034065 8.938863 34,250 110 460 -3328
2019-12-11 09:33:22 GMT 50.038628 8.919636 34,375 109 461 -3264
2019-12-11 09:33:19 GMT 50.038628 8.919636 34,825 104 463 -2816
2019-12-11 09:33:15 GMT 50.043797 8.890983 35,050 102 465 -2304
2019-12-11 09:33:12 GMT 50.043797 8.890983 34,975 102 465 -2304
2019-12-11 09:33:09 GMT 50.044373 8.887289 35,050 102 465 -2368
2019-12-11 09:33:06 GMT 50.045471 8.879555 35,175 102 465 -2368
2019-12-11 09:33:03 GMT 50.047119 8.867918 35,350 102 465 -2368
2019-12-11 09:33:00 GMT 50.048538 8.858016 35,625 102 465 -2240
2019-12-11 09:32:57 GMT 50.049683 8.849921 35,500 102 465 -2304
2019-12-11 09:32:54 GMT 50.051285 8.838501 35,600 102 465 -2240
2019-12-11 09:32:51 GMT 50.052658 8.829105 35,775 102 465 -2112
2019-12-11 09:32:48 GMT 50.054581 8.815950 36,000 103 464 -1728
2019-12-11 09:32:44 GMT 50.056137 8.805831 36,000 104 463 -1536
2019-12-11 09:32:40 GMT 50.058197 8.793255 36,125 104 463 -896
2019-12-11 09:32:37 GMT 50.060120 8.781835 36,175 104 463 -768
2019-12-11 09:32:33 GMT 50.062508 8.768426 36,225 105 464 -1280
2019-12-11 09:32:30 GMT 50.065475 8.751911 37,050 105 466 -2112
2019-12-11 09:32:27 GMT 50.065475 8.751911 36,375 105 466 -1856
2019-12-11 09:32:24 GMT 50.067673 8.739769 36,425 105 466 -2112
2019-12-11 09:32:21 GMT 50.068794 8.733685 36,575 105 466 -2048
2019-12-11 09:32:18 GMT 50.070656 8.723441 36,700 105 466 -1984
2019-12-11 09:32:15 GMT 50.073078 8.710080 36,850 105 465 -1472
2019-12-11 09:32:12 GMT 50.074146 8.704141 36,825 105 465 -1344
2019-12-11 09:32:09 GMT 50.076050 8.693655 36,875 105 466 -832
2019-12-11 09:32:06 GMT 50.078293 8.681151 36,950 105 466 -512
2019-12-11 09:32:03 GMT 50.079758 8.673128 36,975 105 467 -320
2019-12-11 09:32:00 GMT 50.080856 8.666912 37,025 105 468 -64
2019-12-11 09:31:57 GMT 50.084793 8.645301 37,025 105 468 -64
2019-12-11 09:31:54 GMT 50.084793 8.645301 37,025 105 468 -64
2019-12-11 09:31:51 GMT 50.086761 8.634437 37,025 105 472 0
2019-12-11 09:31:48 GMT 50.088776 8.623183 37,025 105 468 0
2019-12-11 09:31:44 GMT 50.090561 8.613281 37,025 105 468 0
2019-12-11 09:31:41 GMT 50.092300 8.603740 37,025 105 468 -64
2019-12-11 09:31:38 GMT 50.094452 8.591670 37,025 105 468 0
2019-12-11 09:31:35 GMT 50.095982 8.583292 37,025 105 468 0
2019-12-11 09:31:32 GMT 50.098030 8.571860 37,025 105 468 64
2019-12-11 09:31:29 GMT 50.099213 8.565144 37,025 105 468 64
2019-12-11 09:31:26 GMT 50.101707 8.551298 37,025 105 469 0
2019-12-11 09:31:23 GMT 50.105301 8.531317 37,025 105 470 -64
2019-12-11 09:31:19 GMT 50.105301 8.531317 37,025 105 468 0
2019-12-11 09:31:16 GMT 50.107155 8.520862 37,025 105 469 64
2019-12-11 09:31:13 GMT 50.108734 8.512091 37,025 105 469 0
2019-12-11 09:31:10 GMT 50.111023 8.499298 37,025 105 470 -64
2019-12-11 09:31:07 GMT 50.112411 8.491392 37,025 105 469 -64
2019-12-11 09:31:04 GMT 50.114227 8.481156 37,050 105 470 0
2019-12-11 09:31:01 GMT 50.115673 8.473131 37,025 105 471 -64
2019-12-11 09:30:58 GMT 50.117348 8.463630 37,025 105 471 -64
2019-12-11 09:30:55 GMT 50.119442 8.451975 37,025 105 471 -64
2019-12-11 09:30:52 GMT 50.120911 8.443716 37,050 105 472 0
2019-12-11 09:30:49 GMT 50.122654 8.433937 37,050 105 471 0
2019-12-11 09:30:46 GMT 50.124939 8.421093 37,050 105 471 0
2019-12-11 09:30:42 GMT 50.126678 8.411335 37,050 105 472 64
2019-12-11 09:30:38 GMT 50.129013 8.398253 37,025 105 472 0
2019-12-11 09:30:35 GMT 50.131126 8.386354 37,025 105 472 0
2019-12-11 09:30:32 GMT 50.133083 8.375516 37,025 105 472 0
2019-12-11 09:30:28 GMT 50.134598 8.366956 37,025 105 473 0
2019-12-11 09:30:25 GMT 50.136715 8.355103 37,025 105 473 0
2019-12-11 09:30:22 GMT 50.138443 8.345273 37,025 105 473 64
2019-12-11 09:30:19 GMT 50.140297 8.334837 37,025 105 473 0
2019-12-11 09:30:16 GMT 50.141975 8.325484 37,050 105 472 0
2019-12-11 09:30:13 GMT 50.143616 8.316289 37,050 105 472 0
2019-12-11 09:30:10 GMT 50.145466 8.305887 37,025 105 473 64
2019-12-11 09:30:07 GMT 50.146866 8.297786 37,050 105 473 64
2019-12-11 09:30:04 GMT 50.148911 8.286215 37,025 105 473 64
2019-12-11 09:30:01 GMT 50.150166 8.279089 37,025 105 470 -64
2019-12-11 09:29:58 GMT 50.152542 8.265622 37,025 105 473 64
2019-12-11 09:29:55 GMT 50.155563 8.248275 37,025 105 473 64
2019-12-11 09:29:52 GMT 50.157990 8.234470 37,025 105 473 64
2019-12-11 09:29:49 GMT 50.157990 8.234470 37,025 105 473 64
2019-12-11 09:29:46 GMT 50.159180 8.227892 37,000 105 473 64
2019-12-11 09:29:43 GMT 50.161377 8.215171 37,025 105 473 64
2019-12-11 09:29:40 GMT 50.162201 8.210473 37,025 105 473 64
2019-12-11 09:29:37 GMT 50.164627 8.196957 37,000 105 473 64
2019-12-11 09:29:34 GMT 50.166321 8.187200 37,000 105 473 64
2019-12-11 09:29:31 GMT 50.168198 8.176502 37,025 105 473 64
2019-12-11 09:29:28 GMT 50.170231 8.164920 37,000 105 473 64
2019-12-11 09:29:25 GMT 50.171440 8.158165 37,000 105 473 64
2019-12-11 09:29:22 GMT 50.173771 8.144878 37,000 105 473 64
2019-12-11 09:29:19 GMT 50.175293 8.136243 37,000 105 473 64
2019-12-11 09:29:16 GMT 50.176796 8.127507 37,000 105 473 64
2019-12-11 09:29:12 GMT 50.178936 8.115259 37,000 105 473 64
2019-12-11 09:29:09 GMT 50.182892 8.092587 37,000 105 472 64
2019-12-11 09:29:05 GMT 50.182892 8.092587 36,975 105 473 64
2019-12-11 09:29:02 GMT 50.186291 8.073318 37,000 105 472 64
2019-12-11 09:28:56 GMT 50.188293 8.061886 37,000 105 472 64
2019-12-11 09:28:53 GMT 50.190342 8.050083 37,000 105 472 0
2019-12-11 09:28:50 GMT 50.191692 8.042289 37,000 105 472 0
2019-12-11 09:28:46 GMT 50.194344 8.027146 37,000 105 472 0
2019-12-11 09:28:43 GMT 50.195801 8.018791 37,000 105 472 0
2019-12-11 09:28:39 GMT 50.197769 8.007371 37,000 105 472 64
2019-12-11 09:28:36 GMT 50.199417 7.998121 37,000 105 472 64
2019-12-11 09:28:33 GMT 50.201385 7.986771 37,000 105 472 64
2019-12-11 09:28:27 GMT 50.204632 7.968057 36,975 105 471 0
2019-12-11 09:28:24 GMT 50.206821 7.955289 36,975 105 471 64
2019-12-11 09:28:21 GMT 50.208076 7.948163 36,975 105 471 64
2019-12-11 09:28:18 GMT 50.209534 7.939790 37,000 105 471 0
2019-12-11 09:28:14 GMT 50.212326 7.923528 36,975 105 471 0
2019-12-11 09:28:11 GMT 50.214130 7.913126 37,000 105 471 -64
2019-12-11 09:28:08 GMT 50.215431 7.905554 36,975 105 470 -64
2019-12-11 09:28:04 GMT 50.217316 7.894616 37,000 105 470 -64
2019-12-11 09:28:01 GMT 50.219437 7.882468 37,000 104 469 -64
2019-12-11 09:27:58 GMT 50.221111 7.872521 37,000 105 470 0
2019-12-11 09:27:55 GMT 50.224323 7.853963 37,000 104 467 0
2019-12-11 09:27:49 GMT 50.228165 7.831662 37,000 105 469 0
2019-12-11 09:27:46 GMT 50.228165 7.831662 37,000 105 469 64
2019-12-11 09:27:40 GMT 50.231689 7.811352 37,000 105 468 0
2019-12-11 09:27:37 GMT 50.232750 7.805118 37,000 105 468 0
2019-12-11 09:27:34 GMT 50.234344 7.795884 37,000 104 467 0
2019-12-11 09:27:31 GMT 50.235992 7.786416 37,000 104 467 0
2019-12-11 09:27:28 GMT 50.238056 7.774312 37,000 104 467 0
2019-12-11 09:27:25 GMT 50.239967 7.763251 37,000 104 466 64
2019-12-11 09:27:22 GMT 50.241486 7.754468 37,000 104 467 0
2019-12-11 09:27:19 GMT 50.244900 7.734746 37,000 104 467 0
2019-12-11 09:27:13 GMT 50.246384 7.725918 37,000 104 466 64
2019-12-11 09:27:10 GMT 50.248352 7.714354 37,000 104 466 128
2019-12-11 09:27:07 GMT 50.249588 7.707343 35,000 104 467 64
2019-12-11 09:27:04 GMT 50.251648 7.695200 37,000 104 466 64
2019-12-11 09:27:01 GMT 50.254532 7.678287 37,000 104 467 0
2019-12-11 09:26:55 GMT 50.255981 7.669942 37,000 104 467 64
2019-12-11 09:26:52 GMT 50.257935 7.658510 37,000 104 467 64
2019-12-11 09:26:49 GMT 50.259796 7.647496 36,975 104 467 64
2019-12-11 09:26:45 GMT 50.261845 7.635572 36,975 104 467 0
2019-12-11 09:26:42 GMT 50.263474 7.626071 36,975 104 467 0
2019-12-11 09:26:39 GMT 50.264824 7.617979 37,000 104 467 0
2019-12-11 09:26:36 GMT 50.266872 7.606102 37,000 104 467 0
2019-12-11 09:26:33 GMT 50.270645 7.583758 37,000 104 467 0
2019-12-11 09:26:30 GMT 50.270645 7.583758 37,000 104 467 0
2019-12-11 09:26:24 GMT 50.273621 7.566255 37,000 104 467 0
2019-12-11 09:26:21 GMT 50.275066 7.557555 37,000 104 467 0
2019-12-11 09:26:18 GMT 50.277100 7.545728 37,000 104 467 0
2019-12-11 09:26:15 GMT 50.280094 7.527936 37,000 104 467 0
2019-12-11 09:26:12 GMT 50.282364 7.514648 37,000 104 466 64
2019-12-11 09:26:09 GMT 50.282364 7.514648 37,000 104 466 0
2019-12-11 09:26:06 GMT 50.283508 7.507710 37,000 104 465 0
2019-12-11 09:26:02 GMT 50.286240 7.491562 37,000 104 466 0
2019-12-11 09:25:59 GMT 50.287354 7.485159 37,000 104 466 0
2019-12-11 09:25:56 GMT 50.288895 7.476122 37,000 104 466 0
2019-12-11 09:25:53 GMT 50.290649 7.465788 37,000 104 466 0
2019-12-11 09:25:49 GMT 50.293453 7.449324 37,000 104 466 0
2019-12-11 09:25:46 GMT 50.294540 7.442587 37,000 104 466 0
2019-12-11 09:25:40 GMT 50.298065 7.421710 37,000 104 465 0
2019-12-11 09:25:37 GMT 50.299484 7.413459 37,000 104 466 64
2019-12-11 09:25:34 GMT 50.301090 7.403746 37,000 104 466 64
2019-12-11 09:25:31 GMT 50.302860 7.393131 37,000 104 466 0
2019-12-11 09:25:27 GMT 50.304955 7.380808 37,000 104 466 64
2019-12-11 09:25:24 GMT 50.306538 7.371307 37,000 104 466 0
2019-12-11 09:25:21 GMT 50.308273 7.360912 37,000 104 465 -64
2019-12-11 09:25:18 GMT 50.309875 7.351299 37,000 104 466 64
2019-12-11 09:25:15 GMT 50.311386 7.342264 37,000 104 466 64
2019-12-11 09:25:12 GMT 50.312916 7.333003 37,000 104 466 64
2019-12-11 09:25:08 GMT 50.315689 7.316605 37,000 104 466 0
2019-12-11 09:25:05 GMT 50.316833 7.309594 37,000 104 466 64
2019-12-11 09:25:02 GMT 50.318527 7.299475 37,000 104 465 64
2019-12-11 09:24:59 GMT 50.320595 7.287202 37,000 104 466 64
2019-12-11 09:24:55 GMT 50.322281 7.276997 37,000 104 465 0
2019-12-11 09:24:52 GMT 50.323929 7.267022 37,000 104 465 0
2019-12-11 09:24:49 GMT 50.325394 7.258349 37,000 104 465 0
2019-12-11 09:24:46 GMT 50.327110 7.248082 37,000 104 465 0
2019-12-11 09:24:43 GMT 50.328735 7.238400 37,000 104 466 0
2019-12-11 09:24:40 GMT 50.330566 7.227414 37,000 104 465 0
2019-12-11 09:24:37 GMT 50.331940 7.218957 37,000 104 465 0
2019-12-11 09:24:32 GMT 50.334869 7.201321 37,000 104 465 0
2019-12-11 09:24:29 GMT 50.337936 7.183107 37,000 104 465 0
2019-12-11 09:24:26 GMT 50.339821 7.171474 37,000 104 465 64
2019-12-11 09:24:23 GMT 50.339821 7.171474 37,000 104 465 0
2019-12-11 09:24:20 GMT 50.341141 7.163664 37,000 104 465 64
2019-12-11 09:24:17 GMT 50.343220 7.150986 37,000 104 465 64
2019-12-11 09:24:13 GMT 50.344894 7.141041 37,000 104 466 64
2019-12-11 09:24:10 GMT 50.346588 7.130850 37,000 104 465 64
2019-12-11 09:24:07 GMT 50.348694 7.118201 37,000 104 466 64
2019-12-11 09:24:01 GMT 50.351227 7.102810 37,000 104 466 0
2019-12-11 09:23:58 GMT 50.352856 7.093011 37,000 104 466 0
2019-12-11 09:23:55 GMT 50.355011 7.079677 37,000 104 466 0
2019-12-11 09:23:51 GMT 50.356579 7.070370 37,000 104 466 0
2019-12-11 09:23:48 GMT 50.358948 7.055969 37,000 104 465 0
2019-12-11 09:23:44 GMT 50.362289 7.035731 37,000 104 465 64
2019-12-11 09:23:38 GMT 50.363846 7.026046 37,000 104 465 64
2019-12-11 09:23:35 GMT 50.365562 7.015661 37,000 104 465 64
2019-12-11 09:23:32 GMT 50.367142 7.006025 37,000 104 465 64
2019-12-11 09:23:29 GMT 50.368469 6.998074 37,000 104 465 64
2019-12-11 09:23:26 GMT 50.372501 6.973275 37,000 104 465 64
2019-12-11 09:23:22 GMT 50.372501 6.973275 37,000 104 466 64
2019-12-11 09:23:19 GMT 50.374512 6.960923 37,000 104 466 64
2019-12-11 09:23:16 GMT 50.375610 6.954346 36,975 104 466 64
2019-12-11 09:23:13 GMT 50.377251 6.944176 36,975 104 466 0
2019-12-11 09:23:10 GMT 50.379158 6.932670 37,000 104 466 64
2019-12-11 09:23:07 GMT 50.382156 6.914303 37,000 104 466 64
2019-12-11 09:23:04 GMT 50.382156 6.914303 36,975 104 466 64
2019-12-11 09:23:01 GMT 50.383812 6.904091 37,000 104 466 64
2019-12-11 09:22:58 GMT 50.385395 6.894366 36,975 104 466 64
2019-12-11 09:22:55 GMT 50.386505 6.887560 36,975 104 466 64
2019-12-11 09:22:52 GMT 50.388474 6.875490 36,975 104 466 64
2019-12-11 09:22:49 GMT 50.390469 6.863189 36,975 104 466 64
2019-12-11 09:22:45 GMT 50.392044 6.853517 36,975 104 466 64
2019-12-11 09:22:42 GMT 50.393776 6.843072 36,975 104 466 0
2019-12-11 09:22:39 GMT 50.398106 6.816497 36,975 104 466 0
2019-12-11 09:22:35 GMT 50.398106 6.816497 36,975 104 466 0
2019-12-11 09:22:32 GMT 50.399082 6.810336 36,975 104 466 0
2019-12-11 09:22:29 GMT 50.402298 6.790563 36,975 104 466 0
2019-12-11 09:22:23 GMT 50.403900 6.780733 36,975 104 465 0
2019-12-11 09:22:20 GMT 50.405823 6.768879 36,975 104 466 -64
2019-12-11 09:22:16 GMT 50.410217 6.741702 36,975 104 465 0
2019-12-11 09:22:12 GMT 50.410217 6.741702 36,975 104 466 0
2019-12-11 09:22:09 GMT 50.411278 6.735213 37,000 104 465 -64
2019-12-11 09:22:06 GMT 50.412815 6.725563 36,975 104 465 0
2019-12-11 09:22:03 GMT 50.414490 6.715245 37,000 104 465 0
2019-12-11 09:22:00 GMT 50.415607 6.708415 37,000 104 465 0
2019-12-11 09:21:57 GMT 50.417610 6.696019 37,000 104 465 -64
2019-12-11 09:21:54 GMT 50.418961 6.687494 37,000 104 465 -64
2019-12-11 09:21:51 GMT 50.420635 6.677238 37,000 104 465 -64
2019-12-11 09:21:48 GMT 50.423893 6.657047 37,050 104 465 -64
2019-12-11 09:21:45 GMT 50.423893 6.657047 37,000 104 465 -128
2019-12-11 09:21:39 GMT 50.426834 6.638561 37,025 104 465 -128
2019-12-11 09:21:36 GMT 50.428501 6.628245 37,025 104 465 -128
2019-12-11 09:21:33 GMT 50.430084 6.618468 37,025 104 464 -64
2019-12-11 09:21:30 GMT 50.431915 6.606831 37,025 103 464 0
2019-12-11 09:21:27 GMT 50.433838 6.594833 37,050 103 468 128
2019-12-11 09:21:24 GMT 50.435162 6.586749 37,025 104 464 0
2019-12-11 09:21:21 GMT 50.436928 6.575689 37,025 104 465 0
2019-12-11 09:21:18 GMT 50.439880 6.557175 37,025 104 466 64
2019-12-11 09:21:15 GMT 50.439880 6.557175 37,025 104 465 0
2019-12-11 09:21:12 GMT 50.441166 6.549114 37,025 104 465 0
2019-12-11 09:21:09 GMT 50.442654 6.539835 37,050 104 465 0
2019-12-11 09:21:06 GMT 50.444145 6.530333 37,050 104 465 0
2019-12-11 09:21:03 GMT 50.446098 6.518233 37,025 104 465 0
2019-12-11 09:21:00 GMT 50.447388 6.510194 37,025 104 465 0
2019-12-11 09:20:57 GMT 50.449310 6.498190 37,025 104 466 64
2019-12-11 09:20:51 GMT 50.452011 6.481340 37,025 104 466 64
2019-12-11 09:20:47 GMT 50.455719 6.457865 37,025 103 467 64
2019-12-11 09:20:41 GMT 50.457458 6.447095 37,025 103 467 64
2019-12-11 09:20:37 GMT 50.459564 6.433868 37,025 103 467 64
2019-12-11 09:20:34 GMT 50.462402 6.415799 37,025 103 467 0
2019-12-11 09:20:28 GMT 50.465744 6.394785 37,025 103 468 0
2019-12-11 09:20:25 GMT 50.465744 6.394785 37,000 103 468 0
2019-12-11 09:20:21 GMT 50.469189 6.373184 37,025 103 468 0
2019-12-11 09:20:15 GMT 50.470913 6.362123 37,025 103 468 128
2019-12-11 09:20:12 GMT 50.474350 6.340485 37,000 103 468 64
2019-12-11 09:20:09 GMT 50.474350 6.340485 36,975 103 467 0
2019-12-11 09:20:06 GMT 50.475677 6.331956 37,000 103 468 64
2019-12-11 09:20:03 GMT 50.476917 6.324042 37,000 103 468 64
2019-12-11 09:20:00 GMT 50.478687 6.312685 37,000 103 468 64
2019-12-11 09:19:56 GMT 50.480804 6.299503 36,975 103 468 64
2019-12-11 09:19:53 GMT 50.482643 6.287594 37,000 103 468 0
2019-12-11 09:19:50 GMT 50.483715 6.280988 37,000 103 468 0
2019-12-11 09:19:47 GMT 50.485481 6.269630 37,000 103 468 0
2019-12-11 09:19:44 GMT 50.487625 6.256063 37,000 103 467 64
2019-12-11 09:19:41 GMT 50.488930 6.247732 37,000 103 468 0
2019-12-11 09:19:38 GMT 50.490559 6.237488 37,000 103 468 64
2019-12-11 09:19:34 GMT 50.492294 6.226357 37,000 103 468 64
2019-12-11 09:19:31 GMT 50.494328 6.213362 37,000 103 468 64
2019-12-11 09:19:27 GMT 50.496368 6.200120 37,000 103 468 0
2019-12-11 09:19:24 GMT 50.497513 6.192964 37,000 103 468 0
2019-12-11 09:19:21 GMT 50.500351 6.174678 37,000 103 468 0
2019-12-11 09:19:18 GMT 50.501869 6.164889 37,000 103 468 0
2019-12-11 09:19:15 GMT 50.501869 6.164889 37,000 103 467 64
2019-12-11 09:19:12 GMT 50.503647 6.153717 37,000 103 468 0
2019-12-11 09:19:08 GMT 50.505779 6.140095 37,000 103 468 0
2019-12-11 09:19:04 GMT 50.507828 6.126882 37,000 103 466 0
2019-12-11 09:19:01 GMT 50.508991 6.119385 37,000 103 467 64
2019-12-11 09:18:57 GMT 50.511040 6.106097 37,000 103 467 64
2019-12-11 09:18:54 GMT 50.512901 6.094369 37,000 103 467 64
2019-12-11 09:18:51 GMT 50.513927 6.087762 37,000 103 468 64
2019-12-11 09:18:48 GMT 50.517380 6.065393 36,975 103 468 64
2019-12-11 09:18:42 GMT 50.518860 6.055768 36,975 103 468 64
2019-12-11 09:18:39 GMT 50.520489 6.045301 36,975 103 468 64
2019-12-11 09:18:36 GMT 50.523750 6.024368 36,975 103 468 0
2019-12-11 09:18:33 GMT 50.523750 6.024368 36,975 103 468 0
2019-12-11 09:18:30 GMT 50.525345 6.014003 36,975 103 467 0
2019-12-11 09:18:27 GMT 50.526306 6.007570 36,975 103 468 64
2019-12-11 09:18:24 GMT 50.527725 5.998535 36,975 103 468 64
2019-12-11 09:18:21 GMT 50.530014 5.983574 36,975 103 467 0
2019-12-11 09:18:18 GMT 50.531113 5.976635 36,975 103 467 0
2019-12-11 09:18:15 GMT 50.532825 5.965502 36,975 103 467 0
2019-12-11 09:18:12 GMT 50.534134 5.956975 36,975 103 467 64
2019-12-11 09:18:09 GMT 50.536037 5.944346 37,000 103 467 64
2019-12-11 09:18:03 GMT 50.538647 5.927272 36,975 103 467 128
2019-12-11 09:18:00 GMT 50.540134 5.917474 36,975 103 467 0
2019-12-11 09:17:57 GMT 50.541687 5.907392 36,975 103 467 0
2019-12-11 09:17:54 GMT 50.543114 5.898099 36,975 103 467 0
2019-12-11 09:17:51 GMT 50.545074 5.885203 37,000 103 466 0
2019-12-11 09:17:48 GMT 50.546188 5.878205 37,000 103 467 -64
2019-12-11 09:17:45 GMT 50.548279 5.864531 37,000 103 467 -64
2019-12-11 09:17:42 GMT 50.549725 5.855119 37,000 103 467 -64
2019-12-11 09:17:38 GMT 50.551540 5.843390 37,000 103 467 0
2019-12-11 09:17:32 GMT 50.554230 5.826079 37,000 103 467 64
2019-12-11 09:17:29 GMT 50.555729 5.816221 37,000 103 467 -64
2019-12-11 09:17:26 GMT 50.557480 5.805046 37,025 103 467 -64
2019-12-11 09:17:22 GMT 50.559723 5.790301 37,000 103 466 0
2019-12-11 09:17:19 GMT 50.561035 5.781852 37,025 103 466 0
2019-12-11 09:17:16 GMT 50.562248 5.773761 37,025 103 466 0
2019-12-11 09:17:13 GMT 50.564064 5.762032 37,025 103 466 -64
2019-12-11 09:17:09 GMT 50.566437 5.746443 37,025 103 466 0
2019-12-11 09:17:06 GMT 50.567368 5.740356 37,025 103 466 0
2019-12-11 09:17:03 GMT 50.569061 5.729298 37,025 103 466 0
2019-12-11 09:17:00 GMT 50.572449 5.706964 37,025 103 467 64
2019-12-11 09:16:57 GMT 50.572449 5.706964 37,025 103 467 64
2019-12-11 09:16:53 GMT 50.574074 5.696263 37,025 103 467 64
2019-12-11 09:16:50 GMT 50.575562 5.686464 37,025 103 467 64
2019-12-11 09:16:47 GMT 50.576935 5.677474 37,025 103 467 64
2019-12-11 09:16:43 GMT 50.579517 5.660037 37,000 103 467 64
2019-12-11 09:16:39 GMT 50.581421 5.647406 37,000 103 467 64
2019-12-11 09:16:33 GMT 50.584213 5.628975 37,000 103 468 64
2019-12-11 09:16:29 GMT 50.585804 5.618393 37,000 103 468 0
2019-12-11 09:16:26 GMT 50.587387 5.607927 37,000 103 468 0
2019-12-11 09:16:23 GMT 50.589016 5.597386 37,000 103 468 0
2019-12-11 09:16:20 GMT 50.590458 5.587587 37,000 103 468 0
2019-12-11 09:16:17 GMT 50.591812 5.578597 37,000 103 468 64
2019-12-11 09:16:14 GMT 50.594925 5.558142 37,000 103 468 64
2019-12-11 09:16:11 GMT 50.596115 5.550047 37,000 103 468 64
2019-12-11 09:16:08 GMT 50.597626 5.540004 37,000 103 468 64
2019-12-11 09:16:05 GMT 50.599365 5.528508 37,000 103 468 64
2019-12-11 09:16:02 GMT 50.599365 5.528508 37,000 103 468 64
2019-12-11 09:15:59 GMT 50.601288 5.515498 36,975 103 468 64
2019-12-11 09:15:56 GMT 50.602570 5.507042 36,975 103 468 64
2019-12-11 09:15:50 GMT 50.605316 5.488755 36,950 102 466 0
2019-12-11 09:15:47 GMT 50.607056 5.477191 36,975 103 468 64
2019-12-11 09:15:43 GMT 50.609406 5.461319 36,975 103 468 64
2019-12-11 09:15:40 GMT 50.610214 5.455941 36,975 103 468 64
2019-12-11 09:15:37 GMT 50.612000 5.443870 36,975 103 468 64
2019-12-11 09:15:34 GMT 50.613510 5.433823 36,975 103 468 64
2019-12-11 09:15:31 GMT 50.615021 5.423777 36,975 103 468 64
2019-12-11 09:15:24 GMT 50.618298 5.401785 36,975 103 468 64
2019-12-11 09:15:21 GMT 50.620285 5.388433 36,975 103 468 64
2019-12-11 09:15:18 GMT 50.622574 5.373037 36,950 103 467 0
2019-12-11 09:15:11 GMT 50.624348 5.361031 36,950 103 468 64
2019-12-11 09:15:08 GMT 50.628120 5.335570 36,975 102 466 0
2019-12-11 09:15:04 GMT 50.628120 5.335570 36,950 103 467 64
2019-12-11 09:15:01 GMT 50.629421 5.326959 36,950 103 467 64
2019-12-11 09:14:58 GMT 50.631088 5.315720 36,950 102 466 64
2019-12-11 09:14:53 GMT 50.633472 5.299493 36,950 102 466 64
2019-12-11 09:14:50 GMT 50.635025 5.288977 36,950 102 466 -64
2019-12-11 09:14:47 GMT 50.636032 5.282255 36,950 102 466 0
2019-12-11 09:14:44 GMT 50.637894 5.269726 36,950 102 466 0
2019-12-11 09:14:38 GMT 50.641342 5.246405 36,975 102 466 -64
2019-12-11 09:14:34 GMT 50.644592 5.224288 36,950 102 466 -64
2019-12-11 09:14:31 GMT 50.644592 5.224288 36,950 102 466 -64
2019-12-11 09:14:28 GMT 50.646088 5.213978 36,975 102 466 0
2019-12-11 09:14:25 GMT 50.647018 5.207664 36,975 102 466 -64
2019-12-11 09:14:22 GMT 50.648575 5.197256 37,000 102 466 0
2019-12-11 09:14:19 GMT 50.650093 5.186957 36,975 102 466 0
2019-12-11 09:14:14 GMT 50.652649 5.169429 36,975 102 466 0
2019-12-11 09:14:11 GMT 50.654140 5.159343 36,975 102 466 0
2019-12-11 09:14:07 GMT 50.655724 5.148579 36,975 102 466 -64
2019-12-11 09:14:04 GMT 50.657681 5.135218 37,000 102 472 0
2019-12-11 09:14:01 GMT 50.659122 5.125271 37,000 102 466 -64
2019-12-11 09:13:58 GMT 50.660053 5.119035 37,000 102 467 -64
2019-12-11 09:13:55 GMT 50.661591 5.108568 37,000 102 467 -64
2019-12-11 09:13:51 GMT 50.663406 5.095922 37,000 102 475 128
2019-12-11 09:13:48 GMT 50.665192 5.083779 37,000 102 467 0
2019-12-11 09:13:45 GMT 50.666386 5.075461 37,000 102 467 64
2019-12-11 09:13:42 GMT 50.668388 5.062025 37,000 102 468 64
2019-12-11 09:13:38 GMT 50.670483 5.047401 37,000 102 468 64
2019-12-11 09:13:34 GMT 50.672112 5.036392 37,000 102 469 -64
2019-12-11 09:13:30 GMT 50.673386 5.027507 37,000 102 470 -64
2019-12-11 09:13:27 GMT 50.675137 5.015411 37,025 102 470 -64
2019-12-11 09:13:23 GMT 50.676998 5.002747 37,025 102 470 -64
2019-12-11 09:13:20 GMT 50.678787 4.990168 37,000 102 470 -64
2019-12-11 09:13:17 GMT 50.680252 4.980147 37,025 102 470 -64
2019-12-11 09:13:11 GMT 50.684692 4.949044 37,025 102 472 0
2019-12-11 09:13:08 GMT 50.684692 4.949044 37,025 102 470 -64
2019-12-11 09:13:05 GMT 50.685982 4.940262 37,025 102 470 -64
2019-12-11 09:13:02 GMT 50.688683 4.921570 37,050 102 470 -64
2019-12-11 09:12:59 GMT 50.688683 4.921570 37,050 102 471 -64
2019-12-11 09:12:55 GMT 50.690407 4.909668 37,050 102 473 0
2019-12-11 09:12:52 GMT 50.692383 4.895820 37,050 102 471 0
2019-12-11 09:12:49 GMT 50.693756 4.886318 37,050 102 471 0
2019-12-11 09:12:45 GMT 50.695667 4.873123 34,975 102 472 0
2019-12-11 09:12:42 GMT 50.697205 4.862518 37,050 102 472 0
2019-12-11 09:12:39 GMT 50.698181 4.855652 37,050 102 472 0
2019-12-11 09:12:36 GMT 50.699997 4.842911 37,050 102 472 0
2019-12-11 09:12:33 GMT 50.701393 4.833145 37,050 102 473 0
2019-12-11 09:12:30 GMT 50.702911 4.822478 37,050 102 473 0
2019-12-11 09:12:26 GMT 50.704559 4.811047 37,050 102 473 0
2019-12-11 09:12:23 GMT 50.705933 4.801545 37,050 102 474 64
2019-12-11 09:12:20 GMT 50.707123 4.793231 37,025 102 474 64
2019-12-11 09:12:17 GMT 50.709026 4.779816 37,025 102 478 64
2019-12-11 09:12:13 GMT 50.712067 4.758713 37,050 102 476 64
2019-12-11 09:12:07 GMT 50.713623 4.747653 37,000 102 478 64
2019-12-11 09:12:04 GMT 50.715134 4.737037 37,050 102 476 64
2019-12-11 09:12:00 GMT 50.717640 4.719391 37,025 102 477 0
2019-12-11 09:11:57 GMT 50.718430 4.713974 37,050 102 477 0
2019-12-11 09:11:54 GMT 50.720573 4.698639 37,050 102 478 64
2019-12-11 09:11:48 GMT 50.722946 4.681778 37,050 102 478 64
2019-12-11 09:11:44 GMT 50.725250 4.665404 37,025 102 478 64
2019-12-11 09:11:41 GMT 50.726765 4.654694 37,025 102 478 0
2019-12-11 09:11:35 GMT 50.729187 4.637641 37,025 102 478 64
2019-12-11 09:11:32 GMT 50.730423 4.628882 37,025 102 478 128
2019-12-11 09:11:29 GMT 50.732025 4.617691 37,025 102 478 64
2019-12-11 09:11:26 GMT 50.735184 4.595329 37,025 102 478 64
2019-12-11 09:11:23 GMT 50.737198 4.581076 37,000 102 477 64
2019-12-11 09:11:19 GMT 50.737198 4.581076 37,025 102 478 64
2019-12-11 09:11:16 GMT 50.738308 4.573364 37,025 102 478 64
2019-12-11 09:11:13 GMT 50.739567 4.564514 37,025 102 478 128
2019-12-11 09:11:10 GMT 50.741043 4.554130 37,000 102 478 64
2019-12-11 09:11:07 GMT 50.742966 4.540397 37,025 102 478 64
2019-12-11 09:11:04 GMT 50.745850 4.519835 37,000 102 478 64
2019-12-11 09:11:01 GMT 50.745850 4.519835 37,000 102 478 64
2019-12-11 09:10:57 GMT 50.747478 4.508438 37,000 102 478 64
2019-12-11 09:10:54 GMT 50.748970 4.497681 37,000 102 478 64
2019-12-11 09:10:51 GMT 50.750702 4.485391 37,000 102 478 64
2019-12-11 09:10:47 GMT 50.752647 4.471741 37,000 102 478 64
2019-12-11 09:10:44 GMT 50.753632 4.464680 37,000 102 478 0
2019-12-11 09:10:41 GMT 50.755020 4.454803 37,000 102 478 0
2019-12-11 09:10:38 GMT 50.756424 4.444786 37,000 102 476 64
2019-12-11 09:10:35 GMT 50.757858 4.434662 37,000 102 478 0
2019-12-11 09:10:32 GMT 50.759399 4.423630 37,000 102 478 0
2019-12-11 09:10:29 GMT 50.761166 4.410706 37,000 102 476 64
2019-12-11 09:10:26 GMT 50.762054 4.404256 37,000 102 476 64
2019-12-11 09:10:23 GMT 50.763794 4.391933 37,000 102 476 64
2019-12-11 09:10:20 GMT 50.764935 4.383545 37,000 102 476 64
2019-12-11 09:10:17 GMT 50.766335 4.373474 37,000 102 476 64
2019-12-11 09:10:14 GMT 50.767868 4.362335 37,000 102 476 0
2019-12-11 09:10:11 GMT 50.769058 4.353704 37,000 102 476 64
2019-12-11 09:10:08 GMT 50.770935 4.340045 37,000 102 476 0
2019-12-11 09:10:05 GMT 50.773361 4.322452 37,000 102 476 64
2019-12-11 09:10:02 GMT 50.775875 4.304428 37,000 102 476 0
2019-12-11 09:09:58 GMT 50.775875 4.304428 37,000 102 476 0
2019-12-11 09:09:55 GMT 50.776806 4.297638 37,000 102 476 0
2019-12-11 09:09:51 GMT 50.778305 4.286672 37,000 102 476 0
2019-12-11 09:09:48 GMT 50.779785 4.276047 37,000 102 476 0
2019-12-11 09:09:45 GMT 50.781693 4.262250 37,000 102 475 0
2019-12-11 09:09:42 GMT 50.783020 4.252674 37,000 102 475 64
2019-12-11 09:09:39 GMT 50.784302 4.243469 37,000 102 475 0
2019-12-11 09:09:35 GMT 50.787792 4.218369 37,000 102 475 0
2019-12-11 09:09:32 GMT 50.787792 4.218369 37,000 102 475 64
2019-12-11 09:09:29 GMT 50.791763 4.189503 37,000 102 475 0
2019-12-11 09:09:24 GMT 50.791763 4.189503 37,000 102 473 -64
2019-12-11 09:09:21 GMT 50.792450 4.184455 37,000 102 473 64
2019-12-11 09:09:18 GMT 50.793777 4.174730 37,000 102 474 0
2019-12-11 09:09:15 GMT 50.795429 4.162750 37,000 102 475 64
2019-12-11 09:09:12 GMT 50.797150 4.150391 37,000 102 474 0
2019-12-11 09:09:08 GMT 50.798733 4.138718 37,000 102 474 0
2019-12-11 09:09:05 GMT 50.800175 4.128494 37,000 102 474 0
2019-12-11 09:09:02 GMT 50.801605 4.118091 37,000 102 474 0
2019-12-11 09:08:58 GMT 50.805771 4.087656 37,000 102 473 64
2019-12-11 09:08:54 GMT 50.805771 4.087656 37,000 102 474 0
2019-12-11 09:08:51 GMT 50.806686 4.080976 37,000 102 473 64
2019-12-11 09:08:48 GMT 50.809952 4.057083 37,000 102 473 -64
2019-12-11 09:08:41 GMT 50.810944 4.049798 37,000 102 473 0
2019-12-11 09:08:38 GMT 50.813770 4.029236 37,000 102 473 0
2019-12-11 09:08:35 GMT 50.813770 4.029236 37,000 102 473 0
2019-12-11 09:08:32 GMT 50.815536 4.016190 37,000 102 472 0
2019-12-11 09:08:29 GMT 50.816895 4.006298 37,000 102 472 0
2019-12-11 09:08:26 GMT 50.818085 3.997539 37,000 102 473 64
2019-12-11 09:08:23 GMT 50.819778 3.985365 37,000 102 472 0
2019-12-11 09:08:20 GMT 50.821262 3.974380 37,000 102 473 0
2019-12-11 09:08:16 GMT 50.824291 3.951950 37,000 101 474 0
2019-12-11 09:08:13 GMT 50.824291 3.951950 37,000 102 473 -64
2019-12-11 09:08:09 GMT 50.827332 3.929617 37,000 101 473 0
2019-12-11 09:08:03 GMT 50.829849 3.910762 37,000 101 473 64
2019-12-11 09:07:56 GMT 50.832458 3.891387 37,000 101 474 64
2019-12-11 09:07:53 GMT 50.833462 3.884048 37,000 101 474 0
2019-12-11 09:07:47 GMT 50.835835 3.866272 37,000 103 472 0
2019-12-11 09:07:44 GMT 50.837540 3.854048 37,000 103 473 0
2019-12-11 09:07:41 GMT 50.839325 3.841800 37,000 105 471 0
2019-12-11 09:07:38 GMT 50.840351 3.835144 37,000 104 472 0
2019-12-11 09:07:35 GMT 50.841980 3.825098 37,025 107 469 0
2019-12-11 09:07:32 GMT 50.843609 3.814926 37,000 109 468 128
2019-12-11 09:07:29 GMT 50.845284 3.805237 37,000 105 470 0
2019-12-11 09:07:25 GMT 50.848267 3.788757 37,000 106 470 0
2019-12-11 09:07:21 GMT 50.850220 3.778555 37,000 106 469 0
2019-12-11 09:07:18 GMT 50.852127 3.768768 37,000 108 469 0
2019-12-11 09:07:15 GMT 50.854176 3.758850 37,000 108 468 0
2019-12-11 09:07:12 GMT 50.857864 3.741364 37,000 109 468 64
2019-12-11 09:07:05 GMT 50.860786 3.728485 37,000 110 467 192
2019-12-11 09:07:02 GMT 50.863907 3.714981 37,000 110 468 128
2019-12-11 09:06:59 GMT 50.865646 3.707737 36,975 110 468 128
2019-12-11 09:06:56 GMT 50.870377 3.687973 36,975 110 469 64
2019-12-11 09:06:53 GMT 50.870377 3.687973 36,975 110 468 192
2019-12-11 09:06:50 GMT 50.872425 3.679504 36,975 110 468 192
2019-12-11 09:06:47 GMT 50.875534 3.666464 36,975 110 469 128
2019-12-11 09:06:44 GMT 50.876942 3.660736 36,975 110 468 192
2019-12-11 09:06:41 GMT 50.879105 3.651618 36,925 110 474 0
2019-12-11 09:06:37 GMT 50.883133 3.634916 36,675 110 468 256
2019-12-11 09:06:34 GMT 50.885551 3.624878 36,000 110 474 0
2019-12-11 09:06:31 GMT 50.886948 3.619003 36,300 110 473 1536
2019-12-11 09:06:27 GMT 50.890163 3.605499 36,675 110 468 1536
2019-12-11 09:06:24 GMT 50.892380 3.596241 36,800 110 467 1088
2019-12-11 09:06:21 GMT 50.894630 3.586807 36,725 110 467 1152
2019-12-11 09:06:17 GMT 50.897781 3.573526 36,700 110 469 1536
2019-12-11 09:06:14 GMT 50.900848 3.560758 36,550 110 469 1536
2019-12-11 09:06:10 GMT 50.903011 3.551636 36,575 110 469 1536
2019-12-11 09:06:07 GMT 50.906067 3.538785 36,375 110 471 1536
2019-12-11 09:06:01 GMT 50.912739 3.510590 36,050 110 473 1536
2019-12-11 09:05:57 GMT 50.912739 3.510590 36,050 110 475 1088
2019-12-11 09:05:54 GMT 50.915951 3.497162 36,200 110 475 1088
2019-12-11 09:05:51 GMT 50.918232 3.487473 36,000 110 478 64
2019-12-11 09:05:47 GMT 50.921909 3.472137 36,000 110 476 384
2019-12-11 09:05:44 GMT 50.923634 3.464890 36,000 110 478 64
2019-12-11 09:05:41 GMT 50.925682 3.456345 36,000 110 478 64
2019-12-11 09:05:38 GMT 50.927994 3.446664 36,000 110 478 128
2019-12-11 09:05:35 GMT 50.930523 3.436203 36,000 110 478 64
2019-12-11 09:05:29 GMT 50.937366 3.407898 36,000 110 478 0
2019-12-11 09:05:26 GMT 50.937366 3.407898 36,000 110 478 64
2019-12-11 09:05:23 GMT 50.939365 3.399734 36,000 110 478 64
2019-12-11 09:05:20 GMT 50.942577 3.386459 36,000 110 477 0
2019-12-11 09:05:16 GMT 50.945663 3.373916 36,000 111 476 64
2019-12-11 09:05:12 GMT 50.949280 3.358921 36,000 111 476 64
2019-12-11 09:05:09 GMT 50.953568 3.341217 36,000 111 476 64
2019-12-11 09:05:06 GMT 50.953568 3.341217 36,000 111 476 0
2019-12-11 09:05:03 GMT 50.956684 3.328476 36,000 110 475 64
2019-12-11 09:05:00 GMT 50.960724 3.311933 36,000 111 476 0
2019-12-11 09:04:54 GMT 50.963203 3.301773 36,000 111 476 0
2019-12-11 09:04:48 GMT 50.967499 3.284021 36,000 110 475 0
2019-12-11 09:04:45 GMT 50.969906 3.274078 36,000 110 477 64
2019-12-11 09:04:42 GMT 50.972374 3.263779 36,000 110 475 64
2019-12-11 09:04:39 GMT 50.977402 3.243103 36,000 110 474 0
2019-12-11 09:04:36 GMT 50.977402 3.243103 36,000 110 474 0
2019-12-11 09:04:33 GMT 50.979218 3.235550 36,000 110 474 0
2019-12-11 09:04:29 GMT 50.982521 3.221970 36,000 110 474 0
2019-12-11 09:04:26 GMT 50.985779 3.208466 36,000 110 474 0
2019-12-11 09:04:23 GMT 50.987225 3.202515 36,000 110 474 0
2019-12-11 09:04:20 GMT 50.989784 3.191986 36,000 110 474 0
2019-12-11 09:04:16 GMT 50.992809 3.179398 36,000 110 474 64
2019-12-11 09:04:13 GMT 50.995090 3.169785 36,000 110 474 64
2019-12-11 09:04:09 GMT 50.998764 3.154561 36,000 110 475 64
2019-12-11 09:04:06 GMT 51.001099 3.144985 36,000 110 473 64
2019-12-11 09:04:03 GMT 51.002930 3.137265 36,000 110 473 64
2019-12-11 09:03:59 GMT 51.009155 3.111284 36,000 110 475 0
2019-12-11 09:03:56 GMT 51.009155 3.111284 36,000 110 475 0
2019-12-11 09:03:53 GMT 51.010712 3.104751 36,000 110 475 0
2019-12-11 09:03:50 GMT 51.012909 3.095472 36,000 110 475 64
2019-12-11 09:03:47 GMT 51.017529 3.076019 36,000 110 475 64
2019-12-11 09:03:44 GMT 51.020321 3.064270 36,000 110 476 128
2019-12-11 09:03:38 GMT 51.023071 3.052640 36,000 110 476 64
2019-12-11 09:03:35 GMT 51.024742 3.045578 36,000 110 477 64
2019-12-11 09:03:31 GMT 51.027676 3.033371 36,000 110 477 0
2019-12-11 09:03:28 GMT 51.030003 3.023376 36,000 110 477 0
2019-12-11 09:03:25 GMT 51.032101 3.014603 36,000 110 477 0
2019-12-11 09:03:22 GMT 51.035248 3.001420 36,000 110 477 0
2019-12-11 09:03:18 GMT 51.037964 2.989883 36,000 110 477 128
2019-12-11 09:03:15 GMT 51.039917 2.981600 36,000 110 476 0
2019-12-11 09:03:12 GMT 51.043037 2.968292 36,000 110 477 128
2019-12-11 09:03:08 GMT 51.044903 2.960587 36,000 110 477 128
2019-12-11 09:03:05 GMT 51.047649 2.948914 36,000 110 466 64
2019-12-11 09:03:02 GMT 51.049976 2.938995 35,975 110 474 0
2019-12-11 09:02:59 GMT 51.052734 2.927337 35,975 110 474 0
2019-12-11 09:02:56 GMT 51.054932 2.917909 36,000 110 476 0
2019-12-11 09:02:53 GMT 51.057953 2.905216 36,000 110 476 -64
2019-12-11 09:02:50 GMT 51.059566 2.898483 36,000 110 474 0
2019-12-11 09:02:47 GMT 51.061935 2.888217 36,000 110 474 0
2019-12-11 09:02:43 GMT 51.064686 2.876663 36,000 110 472 0
2019-12-11 09:02:40 GMT 51.066696 2.868174 36,000 110 472 0
2019-12-11 09:02:36 GMT 51.070450 2.852140 36,000 110 471 0
2019-12-11 09:02:33 GMT 51.072414 2.843933 36,000 110 467 64
2019-12-11 09:02:30 GMT 51.075161 2.832184 36,000 110 467 64
2019-12-11 09:02:27 GMT 51.079422 2.813910 36,000 110 467 64
2019-12-11 09:02:21 GMT 51.081390 2.805522 36,000 110 466 128
2019-12-11 09:02:18 GMT 51.083313 2.797282 36,000 110 464 64
2019-12-11 09:02:15 GMT 51.085922 2.786148 36,000 110 464 64
2019-12-11 09:02:12 GMT 51.089081 2.772489 36,000 110 463 64
2019-12-11 09:02:09 GMT 51.092651 2.756975 36,000 110 463 64
2019-12-11 09:02:03 GMT 51.094852 2.747574 36,000 110 460 64
2019-12-11 09:02:00 GMT 51.097923 2.734222 36,000 109 459 128
2019-12-11 09:01:57 GMT 51.099041 2.729416 35,975 109 459 192
2019-12-11 09:01:54 GMT 51.101089 2.720337 35,975 109 458 192
2019-12-11 09:01:51 GMT 51.103184 2.711105 35,975 109 457 512
2019-12-11 09:01:48 GMT 51.105835 2.699445 35,925 109 457 896
2019-12-11 09:01:45 GMT 51.108585 2.687302 35,900 109 457 896
2019-12-11 09:01:41 GMT 51.110870 2.677101 35,875 109 457 1088
2019-12-11 09:01:38 GMT 51.112656 2.669010 35,875 109 457 1088
2019-12-11 09:01:35 GMT 51.114487 2.660770 35,000 109 460 64
2019-12-11 09:01:32 GMT 51.117336 2.647934 35,700 109 459 1472
2019-12-11 09:01:29 GMT 51.118828 2.641296 35,000 109 459 1472
2019-12-11 09:01:26 GMT 51.123341 2.621155 35,400 109 460 1536
2019-12-11 09:01:20 GMT 51.125519 2.611406 35,425 109 461 1536
2019-12-11 09:01:17 GMT 51.127808 2.601013 35,300 109 462 1472
2019-12-11 09:01:14 GMT 51.130417 2.589493 35,250 109 463 1344
2019-12-11 09:01:11 GMT 51.132202 2.581416 35,075 109 465 1024
2019-12-11 09:01:08 GMT 51.134216 2.572434 35,075 109 465 960
2019-12-11 09:01:05 GMT 51.136841 2.560654 35,025 109 465 576
2019-12-11 09:01:01 GMT 51.139168 2.549896 35,000 109 464 256
2019-12-11 09:00:58 GMT 51.143555 2.530047 35,000 109 462 64
2019-12-11 09:00:52 GMT 51.148060 2.509460 35,000 109 461 0
2019-12-11 09:00:48 GMT 51.148060 2.509460 35,000 109 460 64
2019-12-11 09:00:45 GMT 51.150513 2.498350 35,000 109 460 64
2019-12-11 09:00:42 GMT 51.155090 2.477112 35,000 108 457 128
2019-12-11 09:00:38 GMT 51.155090 2.477112 34,975 108 455 576
2019-12-11 09:00:35 GMT 51.157562 2.465837 34,900 108 455 576
2019-12-11 09:00:32 GMT 51.159622 2.456187 34,975 108 455 576
2019-12-11 09:00:29 GMT 51.161373 2.448120 34,900 108 455 576
2019-12-11 09:00:26 GMT 51.163376 2.438583 34,850 108 455 704
2019-12-11 09:00:23 GMT 51.165115 2.430577 34,650 108 454 832
2019-12-11 09:00:20 GMT 51.167473 2.419510 34,600 108 453 832
2019-12-11 09:00:17 GMT 51.169418 2.410460 34,825 108 453 832
2019-12-11 09:00:13 GMT 51.171803 2.399139 34,775 108 453 832
2019-12-11 09:00:10 GMT 51.173859 2.389452 34,725 108 453 832
2019-12-11 09:00:07 GMT 51.176224 2.378387 34,675 108 453 832
2019-12-11 09:00:03 GMT 51.178619 2.366960 34,600 108 453 768
2019-12-11 09:00:00 GMT 51.180973 2.355576 34,575 107 453 704
2019-12-11 08:59:56 GMT 51.183113 2.344894 34,475 107 451 768
2019-12-11 08:59:53 GMT 51.185349 2.333984 34,500 107 451 768
2019-12-11 08:59:50 GMT 51.187073 2.325516 34,325 107 451 768
2019-12-11 08:59:47 GMT 51.188965 2.316185 34,250 107 452 768
2019-12-11 08:59:44 GMT 51.193039 2.295994 34,150 107 452 768
2019-12-11 08:59:41 GMT 51.193039 2.295994 34,275 107 452 768
2019-12-11 08:59:37 GMT 51.197731 2.272491 34,200 107 451 768
2019-12-11 08:59:34 GMT 51.197731 2.272491 34,250 107 451 768
2019-12-11 08:59:31 GMT 51.199825 2.261810 34,150 107 451 768
2019-12-11 08:59:26 GMT 51.202332 2.249228 34,100 107 450 704
2019-12-11 08:59:23 GMT 51.204254 2.239207 34,125 107 450 704
2019-12-11 08:59:20 GMT 51.206532 2.227478 34,075 107 450 704
2019-12-11 08:59:16 GMT 51.208557 2.217160 34,025 107 450 768
2019-12-11 08:59:12 GMT 51.211327 2.202911 34,000 107 448 768
2019-12-11 08:59:06 GMT 51.214600 2.186205 33,050 107 446 1088
2019-12-11 08:59:03 GMT 51.217072 2.173363 33,875 107 447 832
2019-12-11 08:59:00 GMT 51.218765 2.164529 33,850 107 447 832
2019-12-11 08:58:56 GMT 51.221008 2.153015 33,625 107 446 1024
2019-12-11 08:58:53 GMT 51.223709 2.139053 33,750 106 448 1472
2019-12-11 08:58:50 GMT 51.224640 2.134247 33,700 107 446 1024
2019-12-11 08:58:47 GMT 51.226181 2.126300 33,550 106 446 1152
2019-12-11 08:58:44 GMT 51.228516 2.113977 30,725 106 450 1408
2019-12-11 08:58:41 GMT 51.230087 2.106018 33,525 106 446 1408
2019-12-11 08:58:38 GMT 51.231853 2.096634 33,350 106 448 1408
2019-12-11 08:58:34 GMT 51.234833 2.081093 33,275 106 447 1408
2019-12-11 08:58:31 GMT 51.235748 2.076193 33,275 106 447 1408
2019-12-11 08:58:28 GMT 51.238586 2.061421 33,175 106 448 1408
2019-12-11 08:58:24 GMT 51.240421 2.051773 32,975 106 448 1472
2019-12-11 08:58:21 GMT 51.241817 2.044296 33,025 106 448 1408
2019-12-11 08:58:18 GMT 51.244003 2.033005 32,950 106 448 1408
2019-12-11 08:58:15 GMT 51.246140 2.021707 32,300 106 451 1472
2019-12-11 08:58:12 GMT 51.247356 2.015381 32,725 106 449 1472
2019-12-11 08:58:09 GMT 51.249390 2.004856 32,750 106 449 1472
2019-12-11 08:58:06 GMT 51.251221 1.995206 32,325 106 451 1472
2019-12-11 08:58:03 GMT 51.253361 1.983795 32,600 109 451 1536
2019-12-11 08:58:00 GMT 51.254944 1.975479 32,525 106 450 1408
2019-12-11 08:57:57 GMT 51.256016 1.969681 32,425 106 454 1472
2019-12-11 08:57:54 GMT 51.258251 1.957779 32,400 106 451 1408
2019-12-11 08:57:51 GMT 51.259735 1.949702 32,025 106 451 1472
2019-12-11 08:57:48 GMT 51.262253 1.936192 32,225 106 451 1472
2019-12-11 08:57:45 GMT 51.263512 1.929474 32,125 106 452 1472
2019-12-11 08:57:42 GMT 51.265411 1.919415 32,025 106 452 1472
2019-12-11 08:57:39 GMT 51.267422 1.908646 31,975 106 453 1472
2019-12-11 08:57:36 GMT 51.268864 1.900711 31,775 106 453 1472
2019-12-11 08:57:33 GMT 51.270630 1.891356 31,725 106 453 1472
2019-12-11 08:57:30 GMT 51.274246 1.872130 31,375 106 454 1408
2019-12-11 08:57:27 GMT 51.276218 1.861801 31,075 106 454 1408
2019-12-11 08:57:24 GMT 51.276218 1.861801 31,600 106 454 1472
2019-12-11 08:57:21 GMT 51.278080 1.851807 31,525 106 454 1472
2019-12-11 08:57:18 GMT 51.279831 1.842437 31,500 106 454 1472
2019-12-11 08:57:15 GMT 51.281754 1.832267 31,225 106 454 1408
2019-12-11 08:57:12 GMT 51.283340 1.823883 31,300 106 454 1408
2019-12-11 08:57:09 GMT 51.285297 1.813507 31,275 107 453 1472
2019-12-11 08:57:05 GMT 51.287842 1.800199 31,175 107 453 1472
2019-12-11 08:57:02 GMT 51.289444 1.792033 31,075 107 453 1472
2019-12-11 08:56:59 GMT 51.291824 1.780082 31,000 109 451 1536
2019-12-11 08:56:56 GMT 51.294205 1.769022 30,875 109 451 1536
2019-12-11 08:56:53 GMT 51.296143 1.760025 30,850 109 451 1536
2019-12-11 08:56:50 GMT 51.297588 1.753387 30,825 108 451 1536
2019-12-11 08:56:47 GMT 51.299961 1.742401 30,275 108 452 1344
2019-12-11 08:56:44 GMT 51.304092 1.723443 30,625 109 452 1280
2019-12-11 08:56:41 GMT 51.304092 1.723443 30,375 109 451 1024
2019-12-11 08:56:38 GMT 51.305824 1.715546 30,475 109 451 1024
2019-12-11 08:56:35 GMT 51.308292 1.704636 29,725 171 354 1152
2019-12-11 08:56:32 GMT 51.312485 1.688004 30,425 114 441 256
2019-12-11 08:56:26 GMT 51.318813 1.667633 30,375 117 434 448
2019-12-11 08:56:23 GMT 51.318813 1.667633 30,375 118 433 512
2019-12-11 08:56:20 GMT 51.320862 1.661911 30,300 121 426 1344
2019-12-11 08:56:17 GMT 51.327484 1.644831 28,850 152 378 1536
2019-12-11 08:56:14 GMT 51.327484 1.644831 30,200 125 420 1472
2019-12-11 08:56:11 GMT 51.330963 1.636810 30,100 126 416 1408
2019-12-11 08:56:08 GMT 51.334442 1.629465 30,050 128 413 1472
2019-12-11 08:56:05 GMT 51.336960 1.624418 30,000 130 411 1472
2019-12-11 08:56:02 GMT 51.342361 1.614322 29,850 132 407 1472
2019-12-11 08:55:59 GMT 51.344048 1.611328 29,850 133 405 1472
2019-12-11 08:55:56 GMT 51.349541 1.602325 29,750 135 403 1472
2019-12-11 08:55:53 GMT 51.352844 1.597249 29,650 139 397 1472
2019-12-11 08:55:50 GMT 51.357685 1.590195 29,575 139 396 1472
2019-12-11 08:55:47 GMT 51.360710 1.586075 29,525 140 395 1472
2019-12-11 08:55:44 GMT 51.372162 1.572266 29,300 145 388 1536
2019-12-11 08:55:40 GMT 51.372162 1.572266 29,350 147 386 1536
2019-12-11 08:55:37 GMT 51.375050 1.569061 29,150 149 383 1536
2019-12-11 08:55:34 GMT 51.379120 1.564735 29,200 149 383 1536
2019-12-11 08:55:31 GMT 51.389557 1.555011 29,050 155 374 1536
2019-12-11 08:55:25 GMT 51.394928 1.550522 28,950 154 377 1536
2019-12-11 08:55:22 GMT 51.399025 1.547394 28,900 155 376 1536
2019-12-11 08:55:19 GMT 51.402878 1.544470 28,850 156 374 1472
2019-12-11 08:55:16 GMT 51.408051 1.540907 28,775 157 372 1280
2019-12-11 08:55:12 GMT 51.413689 1.537323 28,600 165 362 1152
2019-12-11 08:55:09 GMT 51.420113 1.533585 28,625 161 367 1152
2019-12-11 08:55:06 GMT 51.424301 1.531405 28,550 164 362 1152
2019-12-11 08:55:03 GMT 51.429428 1.529104 28,450 171 354 1152
2019-12-11 08:55:00 GMT 51.438034 1.526108 28,400 170 356 1152
2019-12-11 08:54:57 GMT 51.444736 1.524353 28,350 170 355 1152
2019-12-11 08:54:54 GMT 51.444736 1.524353 28,325 171 354 1152
2019-12-11 08:54:51 GMT 51.447300 1.523743 28,200 171 354 1152
2019-12-11 08:54:48 GMT 51.453163 1.522217 28,225 171 347 2304
2019-12-11 08:54:45 GMT 51.457912 1.520996 28,175 170 353 1216
2019-12-11 08:54:42 GMT 51.467651 1.518489 28,050 170 353 1088
2019-12-11 08:54:39 GMT 51.472366 1.517301 28,000 170 352 1152
2019-12-11 08:54:36 GMT 51.472366 1.517301 27,975 170 352 1216
2019-12-11 08:54:33 GMT 51.478069 1.515808 27,925 170 351 1280
2019-12-11 08:54:30 GMT 51.483765 1.514332 27,825 170 351 1408
2019-12-11 08:54:27 GMT 51.486870 1.513519 27,800 170 351 1600
2019-12-11 08:54:24 GMT 51.498001 1.510694 27,550 170 351 1664
2019-12-11 08:54:20 GMT 51.498001 1.510694 27,575 170 351 1536
2019-12-11 08:54:17 GMT 51.502743 1.509399 27,425 170 351 1600
2019-12-11 08:54:14 GMT 51.509445 1.507651 27,375 170 351 1472
2019-12-11 08:54:10 GMT 51.514427 1.506348 27,325 170 351 1536
2019-12-11 08:54:07 GMT 51.519333 1.505053 27,250 170 351 1600
2019-12-11 08:54:04 GMT 51.524048 1.503865 27,175 170 351 1600
2019-12-11 08:54:00 GMT 51.531281 1.501923 27,050 170 350 1664
2019-12-11 08:53:57 GMT 51.536308 1.500549 26,975 170 351 1664
2019-12-11 08:53:54 GMT 51.540821 1.499405 26,900 170 351 1536
2019-12-11 08:53:51 GMT 51.544544 1.498413 26,675 170 350 1280
2019-12-11 08:53:48 GMT 51.548878 1.497269 26,775 170 350 1408
2019-12-11 08:53:45 GMT 51.555222 1.495551 26,500 170 350 1216
2019-12-11 08:53:40 GMT 51.562637 1.493621 26,450 170 348 1408
2019-12-11 08:53:37 GMT 51.566803 1.492582 26,450 170 348 1600
2019-12-11 08:53:34 GMT 51.571548 1.491318 26,450 170 348 1600
2019-12-11 08:53:31 GMT 51.576920 1.489909 26,350 170 348 1664
2019-12-11 08:53:28 GMT 51.581696 1.488647 26,300 170 348 1664
2019-12-11 08:53:25 GMT 51.587494 1.487163 26,075 171 347 1792
2019-12-11 08:53:22 GMT 51.591293 1.486198 26,075 171 347 1920
2019-12-11 08:53:19 GMT 51.595871 1.485084 26,000 171 346 2112
2019-12-11 08:53:16 GMT 51.600735 1.483841 25,825 171 347 2368
2019-12-11 08:53:13 GMT 51.604038 1.483078 25,800 171 347 2560
2019-12-11 08:53:10 GMT 51.610325 1.481552 25,550 171 351 3136
2019-12-11 08:53:07 GMT 51.614639 1.480482 24,900 171 352 3264
2019-12-11 08:53:04 GMT 51.619629 1.479294 25,275 171 352 3392
2019-12-11 08:53:01 GMT 51.625259 1.477884 25,175 171 354 3648
2019-12-11 08:52:58 GMT 51.629505 1.476822 24,825 171 359 4096
2019-12-11 08:52:55 GMT 51.634552 1.475508 24,775 171 359 4096
2019-12-11 08:52:52 GMT 51.640907 1.473923 24,475 171 364 3712
2019-12-11 08:52:49 GMT 51.645126 1.472836 24,200 171 368 3072
2019-12-11 08:52:46 GMT 51.654877 1.470386 24,100 171 368 3072
2019-12-11 08:52:43 GMT 51.654877 1.470386 24,000 171 369 2944
2019-12-11 08:52:40 GMT 51.659950 1.469116 23,850 171 371 2240
2019-12-11 08:52:37 GMT 51.664215 1.468085 23,775 171 371 2240
2019-12-11 08:52:34 GMT 51.668190 1.467133 23,625 171 371 1856
2019-12-11 08:52:31 GMT 51.675217 1.465454 23,475 171 371 1088
2019-12-11 08:52:28 GMT 51.681839 1.463928 23,475 171 369 1408
2019-12-11 08:52:25 GMT 51.686207 1.462860 23,375 172 369 1472
2019-12-11 08:52:22 GMT 51.691315 1.461775 23,175 172 368 1472
2019-12-11 08:52:19 GMT 51.694675 1.460953 23,275 172 368 1408
2019-12-11 08:52:16 GMT 51.700607 1.459697 23,225 172 368 1408
2019-12-11 08:52:13 GMT 51.703896 1.458969 22,975 172 365 1472
2019-12-11 08:52:10 GMT 51.711182 1.457396 23,000 172 364 1472
2019-12-11 08:52:07 GMT 51.714741 1.456604 22,975 172 366 1472
2019-12-11 08:52:04 GMT 51.720001 1.455460 22,900 172 360 1600
2019-12-11 08:52:01 GMT 51.730846 1.453171 21,800 168 361 1536
2019-12-11 08:51:58 GMT 51.730846 1.453171 22,725 172 363 1536
2019-12-11 08:51:55 GMT 51.735947 1.452125 22,600 172 361 1536
2019-12-11 08:51:52 GMT 51.739368 1.451416 22,550 172 359 1600
2019-12-11 08:51:49 GMT 51.744415 1.450418 22,450 172 360 1600
2019-12-11 08:51:46 GMT 51.750214 1.449203 22,450 172 361 1536
2019-12-11 08:51:43 GMT 51.755630 1.448117 22,175 172 360 1600
2019-12-11 08:51:38 GMT 51.763481 1.446533 22,275 172 359 1600
2019-12-11 08:51:35 GMT 51.768448 1.445519 22,100 172 359 1664
2019-12-11 08:51:32 GMT 51.773350 1.444473 21,950 171 359 1664
2019-12-11 08:51:29 GMT 51.777832 1.443440 21,900 169 360 1536
2019-12-11 08:51:26 GMT 51.789047 1.440174 21,750 164 364 1472
2019-12-11 08:51:20 GMT 51.798164 1.435547 21,675 159 367 1472
2019-12-11 08:51:17 GMT 51.798164 1.435547 21,625 151 373 1536
2019-12-11 08:51:14 GMT 51.802826 1.432528 21,525 151 373 1536
2019-12-11 08:51:11 GMT 51.807285 1.428986 20,275 129 391 2368
2019-12-11 08:51:08 GMT 51.813339 1.423340 21,400 147 375 1600
2019-12-11 08:51:05 GMT 51.816284 1.420206 21,325 142 379 1728
2019-12-11 08:51:02 GMT 51.827351 1.405334 21,150 135 385 1984
2019-12-11 08:50:58 GMT 51.827351 1.405334 21,100 134 386 2048
2019-12-11 08:50:55 GMT 51.829285 1.402167 21,025 132 388 2240
2019-12-11 08:50:52 GMT 51.832901 1.395709 20,975 129 391 2368
2019-12-11 08:50:49 GMT 51.837082 1.387177 20,125 98 422 1216
2019-12-11 08:50:46 GMT 51.839733 1.380768 19,850 120 401 2304
2019-12-11 08:50:42 GMT 51.843796 1.369802 20,575 118 404 2240
2019-12-11 08:50:39 GMT 51.845833 1.363068 20,100 114 408 2240
2019-12-11 08:50:36 GMT 51.848206 1.354065 20,000 105 417 2048
2019-12-11 08:50:33 GMT 51.850204 1.344934 20,100 105 417 2048
2019-12-11 08:50:30 GMT 51.851624 1.337289 20,075 98 422 1216
2019-12-11 08:50:26 GMT 51.853592 1.322368 19,875 95 423 1664
2019-12-11 08:50:22 GMT 51.854507 1.309600 19,875 95 423 1664
2019-12-11 08:50:19 GMT 51.854771 1.302185 19,700 91 425 1728
2019-12-11 08:50:16 GMT 51.854828 1.288964 19,625 89 426 1856
2019-12-11 08:50:13 GMT 51.854816 1.282578 19,600 89 425 1920
2019-12-11 08:50:10 GMT 51.854736 1.273226 19,475 89 424 1920
2019-12-11 08:50:06 GMT 51.854630 1.259003 18,075 83 407 1600
2019-12-11 08:50:03 GMT 51.854599 1.251328 18,925 89 419 1792
2019-12-11 08:50:00 GMT 51.854538 1.242065 19,025 89 422 1856
2019-12-11 08:49:57 GMT 51.854462 1.232028 19,025 89 421 1856
2019-12-11 08:49:53 GMT 51.854416 1.219185 18,900 89 420 1792
2019-12-11 08:49:50 GMT 51.854397 1.211014 18,825 89 419 1728
2019-12-11 08:49:47 GMT 51.854351 1.200256 18,750 89 418 1728
2019-12-11 08:49:42 GMT 51.854187 1.177913 18,525 87 415 1408
2019-12-11 08:49:38 GMT 51.854118 1.173553 18,450 87 415 1408
2019-12-11 08:49:35 GMT 51.853840 1.163330 18,425 87 414 1408
2019-12-11 08:49:32 GMT 51.853592 1.155198 18,350 85 413 1408
2019-12-11 08:49:29 GMT 51.853226 1.145844 17,600 83 404 1792
2019-12-11 08:49:26 GMT 51.852631 1.133347 18,175 84 410 1472
2019-12-11 08:49:23 GMT 51.852081 1.123946 18,050 84 410 1536
2019-12-11 08:49:20 GMT 51.851700 1.117630 18,025 83 405 1728
2019-12-11 08:49:17 GMT 51.850906 1.105881 17,975 83 407 1600
2019-12-11 08:49:14 GMT 51.850487 1.099930 17,825 83 405 1728
2019-12-11 08:49:11 GMT 51.849789 1.089172 17,775 83 405 1728
2019-12-11 08:49:08 GMT 51.849380 1.082821 17,625 84 404 1856
2019-12-11 08:49:05 GMT 51.848721 1.072769 17,425 84 401 2496
2019-12-11 08:49:02 GMT 51.847961 1.061071 17,350 84 401 2432
2019-12-11 08:48:58 GMT 51.846905 1.044312 17,125 84 400 2304
2019-12-11 08:48:55 GMT 51.846725 1.041326 16,975 84 400 2240
2019-12-11 08:48:52 GMT 51.846157 1.031418 17,075 84 399 2112
2019-12-11 08:48:49 GMT 51.845764 1.024475 17,000 84 399 1920
2019-12-11 08:48:46 GMT 51.845181 1.013718 16,925 85 397 1792
2019-12-11 08:48:43 GMT 51.844669 1.004715 16,725 85 395 1792
2019-12-11 08:48:40 GMT 51.844345 0.998494 16,700 85 395 1792
2019-12-11 08:48:37 GMT 51.843933 0.990848 16,625 85 393 1920
2019-12-11 08:48:33 GMT 51.843292 0.978303 16,425 85 391 2176
2019-12-11 08:48:30 GMT 51.842758 0.968094 16,375 85 391 2368
2019-12-11 08:48:27 GMT 51.842155 0.956879 16,175 85 390 2688
2019-12-11 08:48:24 GMT 51.841690 0.948090 16,075 85 390 2752
2019-12-11 08:48:21 GMT 51.841003 0.933986 15,875 85 390 2752
2019-12-11 08:48:18 GMT 51.840481 0.923538 15,700 85 390 2560
2019-12-11 08:48:15 GMT 51.840481 0.923538 15,500 85 390 2560
2019-12-11 08:48:12 GMT 51.840153 0.916290 15,175 85 390 2432
2019-12-11 08:48:09 GMT 51.839813 0.909119 15,425 85 390 2432
2019-12-11 08:48:06 GMT 51.838848 0.889893 15,225 85 389 2112
2019-12-11 08:48:03 GMT 51.838848 0.889893 15,125 85 389 1984
2019-12-11 08:48:00 GMT 51.838291 0.878601 15,075 85 387 1920
2019-12-11 08:47:57 GMT 51.837982 0.871706 14,525 85 386 1856
2019-12-11 08:47:53 GMT 51.837452 0.861740 14,750 85 384 1728
2019-12-11 08:47:50 GMT 51.837021 0.852777 14,775 85 384 1728
2019-12-11 08:47:47 GMT 51.836563 0.844091 14,700 85 382 1792
2019-12-11 08:47:44 GMT 51.836151 0.835555 14,575 85 380 2048
2019-12-11 08:47:41 GMT 51.835648 0.825608 14,525 85 379 2048
2019-12-11 08:47:38 GMT 51.835266 0.818329 14,400 85 378 1984
2019-12-11 08:47:35 GMT 51.834366 0.799552 14,225 85 376 1984
2019-12-11 08:47:32 GMT 51.834366 0.799552 14,200 86 373 2240
2019-12-11 08:47:29 GMT 51.834007 0.791626 14,050 86 372 2432
2019-12-11 08:47:26 GMT 51.833771 0.786413 13,975 86 370 2688
2019-12-11 08:47:23 GMT 51.833359 0.776540 13,875 86 371 2816
2019-12-11 08:47:20 GMT 51.833076 0.769196 13,800 86 371 2816
2019-12-11 08:47:17 GMT 51.832752 0.762024 13,525 86 365 2432
2019-12-11 08:47:14 GMT 51.832287 0.749512 13,400 86 370 2560
2019-12-11 08:47:11 GMT 51.832054 0.743866 13,350 86 370 2432
2019-12-11 08:47:08 GMT 51.831306 0.723724 12,525 86 364 2432
2019-12-11 08:47:04 GMT 51.831306 0.723724 13,000 86 367 2432
2019-12-11 08:47:01 GMT 51.830795 0.710831 12,800 86 361 3200
2019-12-11 08:46:58 GMT 51.830704 0.708099 12,700 86 365 2432
2019-12-11 08:46:55 GMT 51.830429 0.700527 12,525 86 364 2432
2019-12-11 08:46:52 GMT 51.830109 0.692510 12,450 86 364 2432
2019-12-11 08:46:49 GMT 51.829742 0.683676 11,850 87 337 1024
2019-12-11 08:46:46 GMT 51.829468 0.675808 12,275 86 362 2816
2019-12-11 08:46:43 GMT 51.829102 0.666826 11,975 86 361 3136
2019-12-11 08:46:40 GMT 51.828888 0.660477 11,900 86 361 3200
2019-12-11 08:46:37 GMT 51.828514 0.649643 11,825 86 361 3200
2019-12-11 08:46:34 GMT 51.828323 0.643962 11,600 86 361 3200
2019-12-11 08:46:31 GMT 51.827679 0.625534 11,350 86 361 2816
2019-12-11 08:46:28 GMT 51.827679 0.625534 11,275 86 361 2752
2019-12-11 08:46:25 GMT 51.827442 0.618286 11,125 86 360 2432
2019-12-11 08:46:21 GMT 51.827133 0.608850 11,025 86 359 2112
2019-12-11 08:46:18 GMT 51.826839 0.600128 10,875 87 357 1792
2019-12-11 08:46:15 GMT 51.826511 0.590515 10,725 87 350 1216
2019-12-11 08:46:12 GMT 51.826279 0.582809 10,725 87 350 1216
2019-12-11 08:46:09 GMT 51.826126 0.577747 10,675 87 348 1024
2019-12-11 08:46:06 GMT 51.825813 0.568390 10,625 87 345 1024
2019-12-11 08:46:03 GMT 51.825531 0.559560 10,550 87 340 1024
2019-12-11 08:46:00 GMT 51.825348 0.553251 9,100 86 300 2432
2019-12-11 08:45:57 GMT 51.825115 0.545425 10,375 87 332 1152
2019-12-11 08:45:54 GMT 51.824936 0.539147 10,400 87 329 1152
2019-12-11 08:45:51 GMT 51.824478 0.524746 10,300 87 324 1216
2019-12-11 08:45:45 GMT 51.824203 0.516506 10,100 86 311 1920
2019-12-11 08:45:42 GMT 51.823997 0.509262 10,175 86 315 1472
2019-12-11 08:45:39 GMT 51.823792 0.503070 9,125 86 311 1920
2019-12-11 08:45:36 GMT 51.823486 0.494843 10,000 86 309 2048
2019-12-11 08:45:33 GMT 51.823254 0.487823 9,800 86 305 2176
2019-12-11 08:45:30 GMT 51.822968 0.480949 9,725 86 303 2240
2019-12-11 08:45:27 GMT 51.822693 0.472783 9,625 86 301 2368
2019-12-11 08:45:24 GMT 51.822464 0.467224 9,575 86 299 2688
2019-12-11 08:45:21 GMT 51.822136 0.458527 9,350 86 297 2944
2019-12-11 08:45:17 GMT 51.821823 0.451108 9,175 86 296 3136
2019-12-11 08:45:14 GMT 51.821594 0.445317 8,700 86 294 3392
2019-12-11 08:45:11 GMT 51.821274 0.437449 8,850 86 295 3264
2019-12-11 08:45:08 GMT 51.821045 0.432030 8,275 86 294 3584
2019-12-11 08:45:05 GMT 51.820786 0.426102 8,525 86 294 3520
2019-12-11 08:45:02 GMT 51.820370 0.417099 8,250 86 294 3648
2019-12-11 08:44:59 GMT 51.820221 0.413027 8,125 86 294 3712
2019-12-11 08:44:56 GMT 51.819855 0.405502 7,900 86 294 3712
2019-12-11 08:44:52 GMT 51.819530 0.397415 7,600 86 295 3584
2019-12-11 08:44:49 GMT 51.819252 0.390778 7,525 86 295 3520
2019-12-11 08:44:46 GMT 51.818893 0.382443 7,300 86 295 3200
2019-12-11 08:44:43 GMT 51.818600 0.375671 7,150 86 295 3136
2019-12-11 08:44:40 GMT 51.818413 0.371094 7,050 86 295 2944
2019-12-11 08:44:37 GMT 51.817886 0.358318 6,825 86 292 2496
2019-12-11 08:44:34 GMT 51.817612 0.351043 6,700 86 290 2176
2019-12-11 08:44:31 GMT 51.817612 0.351043 6,625 86 288 2048
2019-12-11 08:44:28 GMT 51.817383 0.344585 6,550 86 283 1728
2019-12-11 08:44:24 GMT 51.817062 0.336838 6,450 86 278 1408
2019-12-11 08:44:21 GMT 51.816879 0.331371 6,400 86 276 1408
2019-12-11 08:44:18 GMT 51.816513 0.321424 6,250 86 265 1472
2019-12-11 08:44:15 GMT 51.816319 0.316315 6,150 86 265 1472
2019-12-11 08:44:12 GMT 51.816086 0.311279 6,125 86 262 1536
2019-12-11 08:44:09 GMT 51.815872 0.305910 5,875 85 249 1600
2019-12-11 08:44:06 GMT 51.815620 0.300140 6,000 85 253 1536
2019-12-11 08:44:03 GMT 51.815342 0.294571 5,900 85 249 1600
2019-12-11 08:44:00 GMT 51.815109 0.289078 5,825 85 246 1920
2019-12-11 08:43:57 GMT 51.814831 0.283432 5,550 85 243 3200
2019-12-11 08:43:53 GMT 51.814453 0.276366 5,450 85 243 3200
2019-12-11 08:43:50 GMT 51.814224 0.270767 5,025 87 244 3008
2019-12-11 08:43:47 GMT 51.813992 0.265274 5,125 87 244 3072
2019-12-11 08:43:44 GMT 51.813904 0.259812 4,900 92 243 3008
2019-12-11 08:43:41 GMT 51.813946 0.254517 4,550 98 240 3264
2019-12-11 08:43:38 GMT 51.814316 0.248306 4,625 101 240 3456
2019-12-11 08:43:35 GMT 51.814690 0.243912 4,450 103 239 3520
2019-12-11 08:43:31 GMT 51.815620 0.236511 4,350 103 239 3520
2019-12-11 08:43:28 GMT 51.816551 0.231171 4,000 109 240 3648
2019-12-11 08:43:25 GMT 51.817429 0.226704 3,650 114 240 3264
2019-12-11 08:43:22 GMT 51.818878 0.221024 3,750 114 240 3264
2019-12-11 08:43:19 GMT 51.820320 0.216217 3,450 116 241 2816
2019-12-11 08:43:16 GMT 51.821732 0.212303 3,475 123 237 1728
2019-12-11 08:43:13 GMT 51.823952 0.207291 3,350 131 228 1152
2019-12-11 08:43:10 GMT 51.826584 0.202431 3,325 133 227 1280
2019-12-11 08:43:07 GMT 51.828232 0.199981 3,250 155 205 832
2019-12-11 08:43:04 GMT 51.831116 0.196492 3,200 153 208 768
2019-12-11 08:43:01 GMT 51.834427 0.193558 3,150 175 184 896
2019-12-11 08:42:58 GMT 51.836384 0.192261 3,125 163 197 896
2019-12-11 08:42:55 GMT 51.840385 0.190582 3,075 169 190 960
2019-12-11 08:42:52 GMT 51.840385 0.190582 3,050 173 186 960
2019-12-11 08:42:49 GMT 51.843273 0.189972 3,025 175 184 896
2019-12-11 08:42:46 GMT 51.845764 0.189885 2,975 185 174 896
2019-12-11 08:42:43 GMT 51.848721 0.190353 2,900 190 168 960
2019-12-11 08:42:40 GMT 51.850159 0.190776 2,850 194 165 960
2019-12-11 08:42:37 GMT 51.852676 0.191727 2,725 204 155 1024
2019-12-11 08:42:32 GMT 51.856400 0.194168 2,575 215 143 1280
2019-12-11 08:42:28 GMT 51.858772 0.196304 2,675 211 147 1088
2019-12-11 08:42:25 GMT 51.860275 0.197902 2,550 217 141 1472
2019-12-11 08:42:22 GMT 51.861923 0.199907 2,500 224 142 3136
2019-12-11 08:42:19 GMT 51.863342 0.201911 2,450 223 136 1920
2019-12-11 08:42:16 GMT 51.865292 0.204926 2,300 224 135 2112
2019-12-11 08:42:13 GMT 51.865990 0.205994 2,200 225 135 2432
2019-12-11 08:42:10 GMT 51.867432 0.208206 2,025 225 136 2816
2019-12-11 08:42:07 GMT 51.869110 0.210800 1,875 224 138 3008
2019-12-11 08:42:04 GMT 51.869991 0.212250 1,775 224 138 3008
2019-12-11 08:42:00 GMT 51.872040 0.215454 1,550 224 141 3200
2019-12-11 08:41:56 GMT 51.873688 0.217945 1,450 224 142 3136
2019-12-11 08:41:52 GMT 51.875793 0.221137 1,125 223 147 2560
2019-12-11 08:41:49 GMT 51.877167 0.223215 1,025 223 147 2496
2019-12-11 08:41:46 GMT 51.878651 0.225372 900 223 148 3008
2019-12-11 08:41:34 GMT 51.885250 0.235157 0 222 145
2019-12-11 08:41:22 GMT 51.890301 0.242748 0 222 100
2019-12-11 08:40:55 GMT 51.894794 0.249449 0 222 6
2019-12-11 08:40:26 GMT 51.894859 0.250340 0 312 9
2019-12-11 08:40:05 GMT 51.894306 0.251332 0 312 10
2019-12-11 08:39:40 GMT 51.893620 0.252489 0 303 8
2019-12-11 08:39:34 GMT 51.893520 0.252781 0 272 8
2019-12-11 08:39:24 GMT 51.893612 0.253277 0 225 6
2019-12-11 08:39:13 GMT 51.893898 0.253686 0 230 8
2019-12-11 08:39:03 GMT 51.894073 0.254098 0 241 6
2019-12-11 08:38:53 GMT 51.894199 0.254451 0 278 5
2019-12-11 08:38:40 GMT 51.894142 0.254883 0 312 4
2019-12-11 08:38:24 GMT 51.893978 0.255165 0 320 3
2019-12-11 08:38:18 GMT 51.893921 0.255236 0 323 3
2019-12-11 08:38:12 GMT 51.893806 0.255373 0 329 3
2019-12-11 08:38:02 GMT 51.893757 0.255432 0 329 3
2019-12-11 08:37:50 GMT 51.893612 0.255566 0 329 4
2019-12-11 08:37:36 GMT 51.893417 0.255766 0 323 5
2019-12-11 08:37:13 GMT 51.893223 0.256026 0 312 0

Making use of Plane Finder data

You are free to use the raw flight data, aircraft information and images provided in this report for your own purposes provided the data is correctly attributed to Plane Finder. We ask that you please credit Plane Finder and link to planefinder.net in close proximity to the content.

Optionally one of the following logos (no smaller then 150x24px) can be used and must link to planefinder.net

Embedding the Plane Finder map

You are welcome to embed the Plane Finder playback map on your website to offer visitors a more interactive experience. We suggest using the following HTML code:

<iframe src="//planefinder.net/data/report/OE315-OE-LOJ-7700-squawk-2019-12-11/map" width="800" height="600" seamless="seamless"></iframe>

Where our data comes from

Plane Finder has a global network of data feeds and antenna radars that receive data broadcast directly from aircraft. The primary technologies used are ADS-B and MLAT. We also show feeds from the FAA and a FLARM glider feed.

Click here to find out more about the Plane Finder network.

How we collect our data